<?xml version="1.0" encoding="UTF-8" standalone="no" ?>
<gpx xmlns="http://www.topografix.com/GPX/1/1" xmlns:xsi="http://www.w3.org/2001/XMLSchema-instance" xsi:schemaLocation="http://www.topografix.com/GPX/1/1 http://www.topografix.com/GPX/1/1/gpx.xsd" version="1.1" creator="VisuGPX - https://www.visugpx.com">
  <metadata>
    <name>2019-06-04 12:15:38</name>
    <desc><![CDATA[

]]></desc>
  </metadata>
  <trk>
    <name><![CDATA[2019-06-04 12:15:38]]></name>
    <trkseg>
      <trkpt lat="42.16498" lon="-8.62114">
        <ele>94.35</ele>
        <time>2019-06-04T06:00:27Z</time>
      </trkpt>
      <trkpt lat="42.16498" lon="-8.62114">
        <ele>94.35</ele>
        <time>2019-06-04T06:00:28Z</time>
      </trkpt>
      <trkpt lat="42.16493" lon="-8.62108">
        <ele>93.87</ele>
        <time>2019-06-04T06:00:44Z</time>
      </trkpt>
      <trkpt lat="42.16493" lon="-8.62108">
        <ele>94.35</ele>
        <time>2019-06-04T06:00:48Z</time>
      </trkpt>
      <trkpt lat="42.165" lon="-8.62102">
        <ele>92.9</ele>
        <time>2019-06-04T06:01:00Z</time>
      </trkpt>
      <trkpt lat="42.16509" lon="-8.62096">
        <ele>93.87</ele>
        <time>2019-06-04T06:01:12Z</time>
      </trkpt>
      <trkpt lat="42.16531" lon="-8.6207">
        <ele>93.87</ele>
        <time>2019-06-04T06:01:28Z</time>
      </trkpt>
      <trkpt lat="42.16542" lon="-8.62072">
        <ele>93.87</ele>
        <time>2019-06-04T06:01:39Z</time>
      </trkpt>
      <trkpt lat="42.16543" lon="-8.62069">
        <ele>93.87</ele>
        <time>2019-06-04T06:01:40Z</time>
      </trkpt>
      <trkpt lat="42.16546" lon="-8.62066">
        <ele>94.35</ele>
        <time>2019-06-04T06:01:44Z</time>
      </trkpt>
      <trkpt lat="42.16553" lon="-8.62053">
        <ele>94.83</ele>
        <time>2019-06-04T06:01:55Z</time>
      </trkpt>
      <trkpt lat="42.16557" lon="-8.62029">
        <ele>94.83</ele>
        <time>2019-06-04T06:02:10Z</time>
      </trkpt>
      <trkpt lat="42.16563" lon="-8.62018">
        <ele>95.31</ele>
        <time>2019-06-04T06:02:24Z</time>
      </trkpt>
      <trkpt lat="42.16564" lon="-8.62016">
        <ele>95.31</ele>
        <time>2019-06-04T06:02:26Z</time>
      </trkpt>
      <trkpt lat="42.16573" lon="-8.62012">
        <ele>95.31</ele>
        <time>2019-06-04T06:02:39Z</time>
      </trkpt>
      <trkpt lat="42.16583" lon="-8.62013">
        <ele>94.35</ele>
        <time>2019-06-04T06:02:54Z</time>
      </trkpt>
      <trkpt lat="42.16587" lon="-8.62015">
        <ele>94.35</ele>
        <time>2019-06-04T06:02:57Z</time>
      </trkpt>
      <trkpt lat="42.16596" lon="-8.62019">
        <ele>93.87</ele>
        <time>2019-06-04T06:03:13Z</time>
      </trkpt>
      <trkpt lat="42.16606" lon="-8.62023">
        <ele>92.9</ele>
        <time>2019-06-04T06:03:25Z</time>
      </trkpt>
      <trkpt lat="42.16615" lon="-8.62034">
        <ele>91.94</ele>
        <time>2019-06-04T06:03:37Z</time>
      </trkpt>
      <trkpt lat="42.16619" lon="-8.62037">
        <ele>92.9</ele>
        <time>2019-06-04T06:03:42Z</time>
      </trkpt>
      <trkpt lat="42.16635" lon="-8.62041">
        <ele>92.42</ele>
        <time>2019-06-04T06:03:58Z</time>
      </trkpt>
      <trkpt lat="42.16656" lon="-8.62035">
        <ele>93.39</ele>
        <time>2019-06-04T06:04:13Z</time>
      </trkpt>
      <trkpt lat="42.16668" lon="-8.62034">
        <ele>93.39</ele>
        <time>2019-06-04T06:04:26Z</time>
      </trkpt>
      <trkpt lat="42.1668" lon="-8.62037">
        <ele>93.39</ele>
        <time>2019-06-04T06:04:38Z</time>
      </trkpt>
      <trkpt lat="42.16686" lon="-8.62036">
        <ele>93.39</ele>
        <time>2019-06-04T06:04:45Z</time>
      </trkpt>
      <trkpt lat="42.16706" lon="-8.62039">
        <ele>92.9</ele>
        <time>2019-06-04T06:05:01Z</time>
      </trkpt>
      <trkpt lat="42.16712" lon="-8.62038">
        <ele>92.9</ele>
        <time>2019-06-04T06:05:06Z</time>
      </trkpt>
      <trkpt lat="42.16731" lon="-8.62027">
        <ele>92.9</ele>
        <time>2019-06-04T06:05:20Z</time>
      </trkpt>
      <trkpt lat="42.16735" lon="-8.62024">
        <ele>93.87</ele>
        <time>2019-06-04T06:05:23Z</time>
      </trkpt>
      <trkpt lat="42.16755" lon="-8.6201">
        <ele>92.9</ele>
        <time>2019-06-04T06:05:36Z</time>
      </trkpt>
      <trkpt lat="42.16771" lon="-8.62004">
        <ele>92.9</ele>
        <time>2019-06-04T06:05:50Z</time>
      </trkpt>
      <trkpt lat="42.16784" lon="-8.61996">
        <ele>92.9</ele>
        <time>2019-06-04T06:06:02Z</time>
      </trkpt>
      <trkpt lat="42.16791" lon="-8.61992">
        <ele>92.9</ele>
        <time>2019-06-04T06:06:07Z</time>
      </trkpt>
      <trkpt lat="42.16799" lon="-8.61991">
        <ele>92.42</ele>
        <time>2019-06-04T06:06:13Z</time>
      </trkpt>
      <trkpt lat="42.16814" lon="-8.61989">
        <ele>91.94</ele>
        <time>2019-06-04T06:06:25Z</time>
      </trkpt>
      <trkpt lat="42.16831" lon="-8.61987">
        <ele>91.94</ele>
        <time>2019-06-04T06:06:39Z</time>
      </trkpt>
      <trkpt lat="42.16848" lon="-8.61982">
        <ele>91.94</ele>
        <time>2019-06-04T06:06:54Z</time>
      </trkpt>
      <trkpt lat="42.16856" lon="-8.61979">
        <ele>92.42</ele>
        <time>2019-06-04T06:07:06Z</time>
      </trkpt>
      <trkpt lat="42.16865" lon="-8.61976">
        <ele>90.98</ele>
        <time>2019-06-04T06:07:19Z</time>
      </trkpt>
      <trkpt lat="42.16877" lon="-8.61975">
        <ele>90.02</ele>
        <time>2019-06-04T06:07:30Z</time>
      </trkpt>
      <trkpt lat="42.16879" lon="-8.61966">
        <ele>90.98</ele>
        <time>2019-06-04T06:07:40Z</time>
      </trkpt>
      <trkpt lat="42.16893" lon="-8.61962">
        <ele>90.98</ele>
        <time>2019-06-04T06:07:49Z</time>
      </trkpt>
      <trkpt lat="42.16896" lon="-8.61961">
        <ele>90.5</ele>
        <time>2019-06-04T06:07:52Z</time>
      </trkpt>
      <trkpt lat="42.16912" lon="-8.61959">
        <ele>90.5</ele>
        <time>2019-06-04T06:08:05Z</time>
      </trkpt>
      <trkpt lat="42.16927" lon="-8.61949">
        <ele>89.54</ele>
        <time>2019-06-04T06:08:18Z</time>
      </trkpt>
      <trkpt lat="42.16925" lon="-8.61954">
        <ele>89.54</ele>
        <time>2019-06-04T06:08:35Z</time>
      </trkpt>
      <trkpt lat="42.16913" lon="-8.61964">
        <ele>88.1</ele>
        <time>2019-06-04T06:09:01Z</time>
      </trkpt>
      <trkpt lat="42.16914" lon="-8.61971">
        <ele>87.62</ele>
        <time>2019-06-04T06:09:28Z</time>
      </trkpt>
      <trkpt lat="42.1692" lon="-8.61972">
        <ele>85.69</ele>
        <time>2019-06-04T06:09:53Z</time>
      </trkpt>
      <trkpt lat="42.1692" lon="-8.6197">
        <ele>87.14</ele>
        <time>2019-06-04T06:09:56Z</time>
      </trkpt>
      <trkpt lat="42.16912" lon="-8.61958">
        <ele>85.69</ele>
        <time>2019-06-04T06:10:20Z</time>
      </trkpt>
      <trkpt lat="42.16913" lon="-8.61959">
        <ele>85.21</ele>
        <time>2019-06-04T06:10:42Z</time>
      </trkpt>
      <trkpt lat="42.16911" lon="-8.61968">
        <ele>79.45</ele>
        <time>2019-06-04T06:10:52Z</time>
      </trkpt>
      <trkpt lat="42.16911" lon="-8.61968">
        <ele>85.69</ele>
        <time>2019-06-04T06:10:53Z</time>
      </trkpt>
      <trkpt lat="42.16911" lon="-8.61968">
        <ele>89.54</ele>
        <time>2019-06-04T06:10:54Z</time>
      </trkpt>
      <trkpt lat="42.16911" lon="-8.61968">
        <ele>77.04</ele>
        <time>2019-06-04T06:10:55Z</time>
      </trkpt>
      <trkpt lat="42.16911" lon="-8.61969">
        <ele>87.14</ele>
        <time>2019-06-04T06:10:56Z</time>
      </trkpt>
      <trkpt lat="42.16911" lon="-8.61972">
        <ele>84.25</ele>
        <time>2019-06-04T06:10:59Z</time>
      </trkpt>
      <trkpt lat="42.16911" lon="-8.61973">
        <ele>88.1</ele>
        <time>2019-06-04T06:11:02Z</time>
      </trkpt>
      <trkpt lat="42.16911" lon="-8.61973">
        <ele>84.25</ele>
        <time>2019-06-04T06:11:03Z</time>
      </trkpt>
      <trkpt lat="42.16908" lon="-8.61971">
        <ele>88.58</ele>
        <time>2019-06-04T06:11:05Z</time>
      </trkpt>
      <trkpt lat="42.16906" lon="-8.61968">
        <ele>85.21</ele>
        <time>2019-06-04T06:11:06Z</time>
      </trkpt>
      <trkpt lat="42.16899" lon="-8.61972">
        <ele>86.66</ele>
        <time>2019-06-04T06:11:21Z</time>
      </trkpt>
      <trkpt lat="42.16898" lon="-8.6197">
        <ele>84.25</ele>
        <time>2019-06-04T06:11:24Z</time>
      </trkpt>
      <trkpt lat="42.16903" lon="-8.61969">
        <ele>85.21</ele>
        <time>2019-06-04T06:11:35Z</time>
      </trkpt>
      <trkpt lat="42.16911" lon="-8.61963">
        <ele>84.25</ele>
        <time>2019-06-04T06:11:42Z</time>
      </trkpt>
      <trkpt lat="42.16953" lon="-8.61958">
        <ele>84.25</ele>
        <time>2019-06-04T06:11:58Z</time>
      </trkpt>
      <trkpt lat="42.16956" lon="-8.61956">
        <ele>84.25</ele>
        <time>2019-06-04T06:12:06Z</time>
      </trkpt>
      <trkpt lat="42.16958" lon="-8.61944">
        <ele>84.25</ele>
        <time>2019-06-04T06:12:13Z</time>
      </trkpt>
      <trkpt lat="42.16959" lon="-8.61935">
        <ele>84.73</ele>
        <time>2019-06-04T06:12:19Z</time>
      </trkpt>
      <trkpt lat="42.16967" lon="-8.6192">
        <ele>85.21</ele>
        <time>2019-06-04T06:12:32Z</time>
      </trkpt>
      <trkpt lat="42.16973" lon="-8.61894">
        <ele>85.69</ele>
        <time>2019-06-04T06:12:46Z</time>
      </trkpt>
      <trkpt lat="42.16981" lon="-8.61888">
        <ele>86.18</ele>
        <time>2019-06-04T06:12:56Z</time>
      </trkpt>
      <trkpt lat="42.16998" lon="-8.61883">
        <ele>86.66</ele>
        <time>2019-06-04T06:13:12Z</time>
      </trkpt>
      <trkpt lat="42.17013" lon="-8.61881">
        <ele>81.85</ele>
        <time>2019-06-04T06:13:26Z</time>
      </trkpt>
      <trkpt lat="42.17013" lon="-8.61882">
        <ele>86.18</ele>
        <time>2019-06-04T06:13:27Z</time>
      </trkpt>
      <trkpt lat="42.17013" lon="-8.61881">
        <ele>91.46</ele>
        <time>2019-06-04T06:13:30Z</time>
      </trkpt>
      <trkpt lat="42.17012" lon="-8.61883">
        <ele>85.69</ele>
        <time>2019-06-04T06:13:32Z</time>
      </trkpt>
      <trkpt lat="42.17011" lon="-8.61884">
        <ele>93.39</ele>
        <time>2019-06-04T06:13:33Z</time>
      </trkpt>
      <trkpt lat="42.17011" lon="-8.61884">
        <ele>84.25</ele>
        <time>2019-06-04T06:13:34Z</time>
      </trkpt>
      <trkpt lat="42.17011" lon="-8.61883">
        <ele>83.77</ele>
        <time>2019-06-04T06:13:35Z</time>
      </trkpt>
      <trkpt lat="42.17012" lon="-8.61883">
        <ele>90.98</ele>
        <time>2019-06-04T06:13:37Z</time>
      </trkpt>
      <trkpt lat="42.17012" lon="-8.61882">
        <ele>85.69</ele>
        <time>2019-06-04T06:13:38Z</time>
      </trkpt>
      <trkpt lat="42.17012" lon="-8.61881">
        <ele>85.69</ele>
        <time>2019-06-04T06:13:39Z</time>
      </trkpt>
      <trkpt lat="42.17032" lon="-8.61867">
        <ele>84.73</ele>
        <time>2019-06-04T06:13:56Z</time>
      </trkpt>
      <trkpt lat="42.17035" lon="-8.61864">
        <ele>85.21</ele>
        <time>2019-06-04T06:13:59Z</time>
      </trkpt>
      <trkpt lat="42.17045" lon="-8.61855">
        <ele>84.73</ele>
        <time>2019-06-04T06:14:09Z</time>
      </trkpt>
      <trkpt lat="42.17064" lon="-8.61846">
        <ele>84.73</ele>
        <time>2019-06-04T06:14:23Z</time>
      </trkpt>
      <trkpt lat="42.17066" lon="-8.61845">
        <ele>83.77</ele>
        <time>2019-06-04T06:14:24Z</time>
      </trkpt>
      <trkpt lat="42.17072" lon="-8.61843">
        <ele>83.77</ele>
        <time>2019-06-04T06:14:28Z</time>
      </trkpt>
      <trkpt lat="42.17096" lon="-8.61835">
        <ele>84.25</ele>
        <time>2019-06-04T06:14:45Z</time>
      </trkpt>
      <trkpt lat="42.171" lon="-8.61833">
        <ele>84.25</ele>
        <time>2019-06-04T06:14:49Z</time>
      </trkpt>
      <trkpt lat="42.17112" lon="-8.61829">
        <ele>84.25</ele>
        <time>2019-06-04T06:14:59Z</time>
      </trkpt>
      <trkpt lat="42.17132" lon="-8.6182">
        <ele>83.77</ele>
        <time>2019-06-04T06:15:16Z</time>
      </trkpt>
      <trkpt lat="42.17144" lon="-8.61817">
        <ele>84.73</ele>
        <time>2019-06-04T06:15:29Z</time>
      </trkpt>
      <trkpt lat="42.17158" lon="-8.61815">
        <ele>84.73</ele>
        <time>2019-06-04T06:15:43Z</time>
      </trkpt>
      <trkpt lat="42.17177" lon="-8.61808">
        <ele>84.73</ele>
        <time>2019-06-04T06:15:58Z</time>
      </trkpt>
      <trkpt lat="42.17194" lon="-8.61802">
        <ele>85.69</ele>
        <time>2019-06-04T06:16:12Z</time>
      </trkpt>
      <trkpt lat="42.1721" lon="-8.61793">
        <ele>86.66</ele>
        <time>2019-06-04T06:16:26Z</time>
      </trkpt>
      <trkpt lat="42.17225" lon="-8.61785">
        <ele>87.62</ele>
        <time>2019-06-04T06:16:39Z</time>
      </trkpt>
      <trkpt lat="42.17241" lon="-8.61774">
        <ele>88.1</ele>
        <time>2019-06-04T06:16:52Z</time>
      </trkpt>
      <trkpt lat="42.17258" lon="-8.61763">
        <ele>88.58</ele>
        <time>2019-06-04T06:17:06Z</time>
      </trkpt>
      <trkpt lat="42.17277" lon="-8.61752">
        <ele>88.58</ele>
        <time>2019-06-04T06:17:21Z</time>
      </trkpt>
      <trkpt lat="42.17293" lon="-8.61738">
        <ele>87.62</ele>
        <time>2019-06-04T06:17:37Z</time>
      </trkpt>
      <trkpt lat="42.17299" lon="-8.61731">
        <ele>86.66</ele>
        <time>2019-06-04T06:17:44Z</time>
      </trkpt>
      <trkpt lat="42.17312" lon="-8.61719">
        <ele>86.18</ele>
        <time>2019-06-04T06:17:57Z</time>
      </trkpt>
      <trkpt lat="42.17323" lon="-8.61703">
        <ele>84.25</ele>
        <time>2019-06-04T06:18:10Z</time>
      </trkpt>
      <trkpt lat="42.17338" lon="-8.61684">
        <ele>84.25</ele>
        <time>2019-06-04T06:18:25Z</time>
      </trkpt>
      <trkpt lat="42.17344" lon="-8.61677">
        <ele>83.77</ele>
        <time>2019-06-04T06:18:32Z</time>
      </trkpt>
      <trkpt lat="42.17357" lon="-8.61673">
        <ele>83.77</ele>
        <time>2019-06-04T06:18:46Z</time>
      </trkpt>
      <trkpt lat="42.17373" lon="-8.61667">
        <ele>83.77</ele>
        <time>2019-06-04T06:19:00Z</time>
      </trkpt>
      <trkpt lat="42.17387" lon="-8.6166">
        <ele>84.25</ele>
        <time>2019-06-04T06:19:12Z</time>
      </trkpt>
      <trkpt lat="42.17401" lon="-8.61651">
        <ele>84.73</ele>
        <time>2019-06-04T06:19:26Z</time>
      </trkpt>
      <trkpt lat="42.17414" lon="-8.61643">
        <ele>86.66</ele>
        <time>2019-06-04T06:19:40Z</time>
      </trkpt>
      <trkpt lat="42.17431" lon="-8.61629">
        <ele>85.69</ele>
        <time>2019-06-04T06:19:55Z</time>
      </trkpt>
      <trkpt lat="42.17447" lon="-8.61622">
        <ele>84.25</ele>
        <time>2019-06-04T06:20:08Z</time>
      </trkpt>
      <trkpt lat="42.17453" lon="-8.61617">
        <ele>84.25</ele>
        <time>2019-06-04T06:20:14Z</time>
      </trkpt>
      <trkpt lat="42.17475" lon="-8.61604">
        <ele>83.29</ele>
        <time>2019-06-04T06:20:31Z</time>
      </trkpt>
      <trkpt lat="42.1749" lon="-8.61595">
        <ele>82.81</ele>
        <time>2019-06-04T06:20:44Z</time>
      </trkpt>
      <trkpt lat="42.17506" lon="-8.61589">
        <ele>82.81</ele>
        <time>2019-06-04T06:20:57Z</time>
      </trkpt>
      <trkpt lat="42.1751" lon="-8.61588">
        <ele>82.81</ele>
        <time>2019-06-04T06:21:00Z</time>
      </trkpt>
      <trkpt lat="42.17514" lon="-8.61586">
        <ele>82.81</ele>
        <time>2019-06-04T06:21:04Z</time>
      </trkpt>
      <trkpt lat="42.17522" lon="-8.61584">
        <ele>82.33</ele>
        <time>2019-06-04T06:21:12Z</time>
      </trkpt>
      <trkpt lat="42.17543" lon="-8.61578">
        <ele>81.37</ele>
        <time>2019-06-04T06:21:28Z</time>
      </trkpt>
      <trkpt lat="42.17549" lon="-8.61587">
        <ele>80.89</ele>
        <time>2019-06-04T06:21:38Z</time>
      </trkpt>
      <trkpt lat="42.17554" lon="-8.61596">
        <ele>79.45</ele>
        <time>2019-06-04T06:21:49Z</time>
      </trkpt>
      <trkpt lat="42.17557" lon="-8.61607">
        <ele>78</ele>
        <time>2019-06-04T06:21:57Z</time>
      </trkpt>
      <trkpt lat="42.1756" lon="-8.6162">
        <ele>77.52</ele>
        <time>2019-06-04T06:22:04Z</time>
      </trkpt>
      <trkpt lat="42.17563" lon="-8.61628">
        <ele>77.52</ele>
        <time>2019-06-04T06:22:09Z</time>
      </trkpt>
      <trkpt lat="42.17563" lon="-8.61633">
        <ele>76.56</ele>
        <time>2019-06-04T06:22:11Z</time>
      </trkpt>
      <trkpt lat="42.17569" lon="-8.61651">
        <ele>76.08</ele>
        <time>2019-06-04T06:22:23Z</time>
      </trkpt>
      <trkpt lat="42.17572" lon="-8.61658">
        <ele>75.6</ele>
        <time>2019-06-04T06:22:28Z</time>
      </trkpt>
      <trkpt lat="42.17572" lon="-8.61671">
        <ele>73.68</ele>
        <time>2019-06-04T06:22:42Z</time>
      </trkpt>
      <trkpt lat="42.17575" lon="-8.61678">
        <ele>74.16</ele>
        <time>2019-06-04T06:22:56Z</time>
      </trkpt>
      <trkpt lat="42.17579" lon="-8.61693">
        <ele>73.2</ele>
        <time>2019-06-04T06:23:06Z</time>
      </trkpt>
      <trkpt lat="42.17585" lon="-8.61708">
        <ele>71.76</ele>
        <time>2019-06-04T06:23:15Z</time>
      </trkpt>
      <trkpt lat="42.17591" lon="-8.61729">
        <ele>68.87</ele>
        <time>2019-06-04T06:23:27Z</time>
      </trkpt>
      <trkpt lat="42.17595" lon="-8.61741">
        <ele>68.39</ele>
        <time>2019-06-04T06:23:35Z</time>
      </trkpt>
      <trkpt lat="42.17597" lon="-8.61755">
        <ele>65.03</ele>
        <time>2019-06-04T06:23:45Z</time>
      </trkpt>
      <trkpt lat="42.17599" lon="-8.61758">
        <ele>64.55</ele>
        <time>2019-06-04T06:23:47Z</time>
      </trkpt>
      <trkpt lat="42.17607" lon="-8.61772">
        <ele>63.1</ele>
        <time>2019-06-04T06:23:59Z</time>
      </trkpt>
      <trkpt lat="42.17621" lon="-8.61796">
        <ele>62.62</ele>
        <time>2019-06-04T06:24:14Z</time>
      </trkpt>
      <trkpt lat="42.17634" lon="-8.61813">
        <ele>61.66</ele>
        <time>2019-06-04T06:24:26Z</time>
      </trkpt>
      <trkpt lat="42.17638" lon="-8.61826">
        <ele>61.66</ele>
        <time>2019-06-04T06:24:33Z</time>
      </trkpt>
      <trkpt lat="42.17639" lon="-8.61832">
        <ele>61.18</ele>
        <time>2019-06-04T06:24:45Z</time>
      </trkpt>
      <trkpt lat="42.1764" lon="-8.61842">
        <ele>60.7</ele>
        <time>2019-06-04T06:25:01Z</time>
      </trkpt>
      <trkpt lat="42.17633" lon="-8.61865">
        <ele>59.74</ele>
        <time>2019-06-04T06:25:14Z</time>
      </trkpt>
      <trkpt lat="42.17626" lon="-8.61886">
        <ele>58.78</ele>
        <time>2019-06-04T06:25:28Z</time>
      </trkpt>
      <trkpt lat="42.17616" lon="-8.61916">
        <ele>56.86</ele>
        <time>2019-06-04T06:25:46Z</time>
      </trkpt>
      <trkpt lat="42.17611" lon="-8.61943">
        <ele>56.37</ele>
        <time>2019-06-04T06:26:02Z</time>
      </trkpt>
      <trkpt lat="42.17611" lon="-8.61967">
        <ele>56.37</ele>
        <time>2019-06-04T06:26:17Z</time>
      </trkpt>
      <trkpt lat="42.17611" lon="-8.61995">
        <ele>55.41</ele>
        <time>2019-06-04T06:26:35Z</time>
      </trkpt>
      <trkpt lat="42.17614" lon="-8.62015">
        <ele>55.41</ele>
        <time>2019-06-04T06:26:48Z</time>
      </trkpt>
      <trkpt lat="42.1762" lon="-8.62038">
        <ele>55.41</ele>
        <time>2019-06-04T06:27:02Z</time>
      </trkpt>
      <trkpt lat="42.17626" lon="-8.62057">
        <ele>54.93</ele>
        <time>2019-06-04T06:27:14Z</time>
      </trkpt>
      <trkpt lat="42.1763" lon="-8.62072">
        <ele>54.45</ele>
        <time>2019-06-04T06:27:22Z</time>
      </trkpt>
      <trkpt lat="42.17633" lon="-8.62086">
        <ele>54.45</ele>
        <time>2019-06-04T06:27:31Z</time>
      </trkpt>
      <trkpt lat="42.17636" lon="-8.62107">
        <ele>54.45</ele>
        <time>2019-06-04T06:27:46Z</time>
      </trkpt>
      <trkpt lat="42.17635" lon="-8.62109">
        <ele>54.45</ele>
        <time>2019-06-04T06:27:47Z</time>
      </trkpt>
      <trkpt lat="42.17634" lon="-8.62111">
        <ele>54.45</ele>
        <time>2019-06-04T06:27:49Z</time>
      </trkpt>
      <trkpt lat="42.17636" lon="-8.62127">
        <ele>54.45</ele>
        <time>2019-06-04T06:28:02Z</time>
      </trkpt>
      <trkpt lat="42.17634" lon="-8.62133">
        <ele>53.97</ele>
        <time>2019-06-04T06:28:21Z</time>
      </trkpt>
      <trkpt lat="42.17627" lon="-8.62135">
        <ele>53.01</ele>
        <time>2019-06-04T06:28:49Z</time>
      </trkpt>
      <trkpt lat="42.17625" lon="-8.6213">
        <ele>53.01</ele>
        <time>2019-06-04T06:29:10Z</time>
      </trkpt>
      <trkpt lat="42.17627" lon="-8.62142">
        <ele>52.53</ele>
        <time>2019-06-04T06:29:36Z</time>
      </trkpt>
      <trkpt lat="42.17634" lon="-8.62173">
        <ele>53.01</ele>
        <time>2019-06-04T06:29:53Z</time>
      </trkpt>
      <trkpt lat="42.17639" lon="-8.62194">
        <ele>53.49</ele>
        <time>2019-06-04T06:30:06Z</time>
      </trkpt>
      <trkpt lat="42.17644" lon="-8.62215">
        <ele>53.49</ele>
        <time>2019-06-04T06:30:19Z</time>
      </trkpt>
      <trkpt lat="42.17645" lon="-8.62222">
        <ele>53.49</ele>
        <time>2019-06-04T06:30:26Z</time>
      </trkpt>
      <trkpt lat="42.17655" lon="-8.62244">
        <ele>54.45</ele>
        <time>2019-06-04T06:30:43Z</time>
      </trkpt>
      <trkpt lat="42.17666" lon="-8.62258">
        <ele>54.93</ele>
        <time>2019-06-04T06:30:56Z</time>
      </trkpt>
      <trkpt lat="42.17677" lon="-8.6227">
        <ele>56.86</ele>
        <time>2019-06-04T06:31:10Z</time>
      </trkpt>
      <trkpt lat="42.17686" lon="-8.62269">
        <ele>57.34</ele>
        <time>2019-06-04T06:31:24Z</time>
      </trkpt>
      <trkpt lat="42.17705" lon="-8.62257">
        <ele>57.82</ele>
        <time>2019-06-04T06:31:40Z</time>
      </trkpt>
      <trkpt lat="42.17723" lon="-8.62244">
        <ele>57.82</ele>
        <time>2019-06-04T06:31:56Z</time>
      </trkpt>
      <trkpt lat="42.17737" lon="-8.62236">
        <ele>58.78</ele>
        <time>2019-06-04T06:32:10Z</time>
      </trkpt>
      <trkpt lat="42.17743" lon="-8.62234">
        <ele>57.82</ele>
        <time>2019-06-04T06:32:14Z</time>
      </trkpt>
      <trkpt lat="42.17752" lon="-8.62226">
        <ele>58.78</ele>
        <time>2019-06-04T06:32:26Z</time>
      </trkpt>
      <trkpt lat="42.1776" lon="-8.62216">
        <ele>58.78</ele>
        <time>2019-06-04T06:32:35Z</time>
      </trkpt>
      <trkpt lat="42.17773" lon="-8.62193">
        <ele>57.82</ele>
        <time>2019-06-04T06:32:50Z</time>
      </trkpt>
      <trkpt lat="42.17786" lon="-8.62167">
        <ele>56.37</ele>
        <time>2019-06-04T06:33:06Z</time>
      </trkpt>
      <trkpt lat="42.17787" lon="-8.62163">
        <ele>56.37</ele>
        <time>2019-06-04T06:33:09Z</time>
      </trkpt>
      <trkpt lat="42.17795" lon="-8.62146">
        <ele>55.89</ele>
        <time>2019-06-04T06:33:20Z</time>
      </trkpt>
      <trkpt lat="42.17798" lon="-8.62139">
        <ele>55.41</ele>
        <time>2019-06-04T06:33:25Z</time>
      </trkpt>
      <trkpt lat="42.17804" lon="-8.62131">
        <ele>55.41</ele>
        <time>2019-06-04T06:33:35Z</time>
      </trkpt>
      <trkpt lat="42.1781" lon="-8.62124">
        <ele>55.41</ele>
        <time>2019-06-04T06:33:40Z</time>
      </trkpt>
      <trkpt lat="42.17816" lon="-8.62115">
        <ele>54.93</ele>
        <time>2019-06-04T06:33:48Z</time>
      </trkpt>
      <trkpt lat="42.17824" lon="-8.62101">
        <ele>54.45</ele>
        <time>2019-06-04T06:33:57Z</time>
      </trkpt>
      <trkpt lat="42.17829" lon="-8.62097">
        <ele>53.97</ele>
        <time>2019-06-04T06:34:01Z</time>
      </trkpt>
      <trkpt lat="42.1783" lon="-8.62093">
        <ele>54.45</ele>
        <time>2019-06-04T06:34:03Z</time>
      </trkpt>
      <trkpt lat="42.17852" lon="-8.62083">
        <ele>53.49</ele>
        <time>2019-06-04T06:34:18Z</time>
      </trkpt>
      <trkpt lat="42.17862" lon="-8.62067">
        <ele>53.49</ele>
        <time>2019-06-04T06:34:31Z</time>
      </trkpt>
      <trkpt lat="42.17874" lon="-8.62055">
        <ele>53.01</ele>
        <time>2019-06-04T06:34:45Z</time>
      </trkpt>
      <trkpt lat="42.17888" lon="-8.62052">
        <ele>53.01</ele>
        <time>2019-06-04T06:34:59Z</time>
      </trkpt>
      <trkpt lat="42.17905" lon="-8.6206">
        <ele>53.01</ele>
        <time>2019-06-04T06:35:16Z</time>
      </trkpt>
      <trkpt lat="42.17912" lon="-8.62064">
        <ele>53.49</ele>
        <time>2019-06-04T06:35:20Z</time>
      </trkpt>
      <trkpt lat="42.17921" lon="-8.62067">
        <ele>53.49</ele>
        <time>2019-06-04T06:35:27Z</time>
      </trkpt>
      <trkpt lat="42.17923" lon="-8.62067">
        <ele>52.53</ele>
        <time>2019-06-04T06:35:29Z</time>
      </trkpt>
      <trkpt lat="42.17938" lon="-8.62073">
        <ele>53.49</ele>
        <time>2019-06-04T06:35:42Z</time>
      </trkpt>
      <trkpt lat="42.1794" lon="-8.62072">
        <ele>53.97</ele>
        <time>2019-06-04T06:35:57Z</time>
      </trkpt>
      <trkpt lat="42.17941" lon="-8.62074">
        <ele>53.49</ele>
        <time>2019-06-04T06:36:15Z</time>
      </trkpt>
      <trkpt lat="42.17946" lon="-8.62072">
        <ele>53.97</ele>
        <time>2019-06-04T06:36:28Z</time>
      </trkpt>
      <trkpt lat="42.17953" lon="-8.62071">
        <ele>54.45</ele>
        <time>2019-06-04T06:36:34Z</time>
      </trkpt>
      <trkpt lat="42.17961" lon="-8.62066">
        <ele>54.93</ele>
        <time>2019-06-04T06:36:46Z</time>
      </trkpt>
      <trkpt lat="42.17971" lon="-8.62061">
        <ele>55.41</ele>
        <time>2019-06-04T06:36:59Z</time>
      </trkpt>
      <trkpt lat="42.17983" lon="-8.62057">
        <ele>57.34</ele>
        <time>2019-06-04T06:37:13Z</time>
      </trkpt>
      <trkpt lat="42.17995" lon="-8.62055">
        <ele>58.3</ele>
        <time>2019-06-04T06:37:25Z</time>
      </trkpt>
      <trkpt lat="42.18007" lon="-8.62058">
        <ele>61.18</ele>
        <time>2019-06-04T06:37:38Z</time>
      </trkpt>
      <trkpt lat="42.1802" lon="-8.62058">
        <ele>62.62</ele>
        <time>2019-06-04T06:37:53Z</time>
      </trkpt>
      <trkpt lat="42.18034" lon="-8.62056">
        <ele>64.55</ele>
        <time>2019-06-04T06:38:10Z</time>
      </trkpt>
      <trkpt lat="42.18048" lon="-8.62058">
        <ele>65.03</ele>
        <time>2019-06-04T06:38:23Z</time>
      </trkpt>
      <trkpt lat="42.18065" lon="-8.62057">
        <ele>66.47</ele>
        <time>2019-06-04T06:38:39Z</time>
      </trkpt>
      <trkpt lat="42.18075" lon="-8.62055">
        <ele>68.39</ele>
        <time>2019-06-04T06:38:53Z</time>
      </trkpt>
      <trkpt lat="42.1809" lon="-8.6205">
        <ele>69.83</ele>
        <time>2019-06-04T06:39:10Z</time>
      </trkpt>
      <trkpt lat="42.18094" lon="-8.62047">
        <ele>69.83</ele>
        <time>2019-06-04T06:39:14Z</time>
      </trkpt>
      <trkpt lat="42.18112" lon="-8.62031">
        <ele>71.27</ele>
        <time>2019-06-04T06:39:31Z</time>
      </trkpt>
      <trkpt lat="42.18122" lon="-8.62016">
        <ele>72.24</ele>
        <time>2019-06-04T06:39:48Z</time>
      </trkpt>
      <trkpt lat="42.18134" lon="-8.62006">
        <ele>74.16</ele>
        <time>2019-06-04T06:40:03Z</time>
      </trkpt>
      <trkpt lat="42.18137" lon="-8.62004">
        <ele>73.68</ele>
        <time>2019-06-04T06:40:18Z</time>
      </trkpt>
      <trkpt lat="42.18138" lon="-8.62003">
        <ele>74.16</ele>
        <time>2019-06-04T06:40:30Z</time>
      </trkpt>
      <trkpt lat="42.18143" lon="-8.61999">
        <ele>73.2</ele>
        <time>2019-06-04T06:40:43Z</time>
      </trkpt>
      <trkpt lat="42.18156" lon="-8.61988">
        <ele>71.27</ele>
        <time>2019-06-04T06:40:57Z</time>
      </trkpt>
      <trkpt lat="42.18172" lon="-8.61982">
        <ele>69.83</ele>
        <time>2019-06-04T06:41:10Z</time>
      </trkpt>
      <trkpt lat="42.18173" lon="-8.61983">
        <ele>69.83</ele>
        <time>2019-06-04T06:41:11Z</time>
      </trkpt>
      <trkpt lat="42.18176" lon="-8.61983">
        <ele>68.39</ele>
        <time>2019-06-04T06:41:14Z</time>
      </trkpt>
      <trkpt lat="42.18193" lon="-8.61973">
        <ele>67.91</ele>
        <time>2019-06-04T06:41:28Z</time>
      </trkpt>
      <trkpt lat="42.18195" lon="-8.61971">
        <ele>67.43</ele>
        <time>2019-06-04T06:41:30Z</time>
      </trkpt>
      <trkpt lat="42.18206" lon="-8.61947">
        <ele>68.87</ele>
        <time>2019-06-04T06:41:48Z</time>
      </trkpt>
      <trkpt lat="42.18207" lon="-8.61946">
        <ele>69.35</ele>
        <time>2019-06-04T06:41:49Z</time>
      </trkpt>
      <trkpt lat="42.18217" lon="-8.61928">
        <ele>70.79</ele>
        <time>2019-06-04T06:42:03Z</time>
      </trkpt>
      <trkpt lat="42.18219" lon="-8.61927">
        <ele>71.27</ele>
        <time>2019-06-04T06:42:05Z</time>
      </trkpt>
      <trkpt lat="42.18232" lon="-8.61922">
        <ele>72.72</ele>
        <time>2019-06-04T06:42:20Z</time>
      </trkpt>
      <trkpt lat="42.18244" lon="-8.61919">
        <ele>73.2</ele>
        <time>2019-06-04T06:42:32Z</time>
      </trkpt>
      <trkpt lat="42.18245" lon="-8.61919">
        <ele>72.72</ele>
        <time>2019-06-04T06:42:33Z</time>
      </trkpt>
      <trkpt lat="42.18261" lon="-8.61914">
        <ele>73.2</ele>
        <time>2019-06-04T06:42:47Z</time>
      </trkpt>
      <trkpt lat="42.18272" lon="-8.61908">
        <ele>74.16</ele>
        <time>2019-06-04T06:42:58Z</time>
      </trkpt>
      <trkpt lat="42.18289" lon="-8.61893">
        <ele>74.64</ele>
        <time>2019-06-04T06:43:14Z</time>
      </trkpt>
      <trkpt lat="42.18301" lon="-8.61876">
        <ele>76.08</ele>
        <time>2019-06-04T06:43:29Z</time>
      </trkpt>
      <trkpt lat="42.18302" lon="-8.61873">
        <ele>75.6</ele>
        <time>2019-06-04T06:43:44Z</time>
      </trkpt>
      <trkpt lat="42.18313" lon="-8.61852">
        <ele>74.16</ele>
        <time>2019-06-04T06:44:00Z</time>
      </trkpt>
      <trkpt lat="42.18328" lon="-8.61838">
        <ele>72.72</ele>
        <time>2019-06-04T06:44:14Z</time>
      </trkpt>
      <trkpt lat="42.18346" lon="-8.61828">
        <ele>72.24</ele>
        <time>2019-06-04T06:44:29Z</time>
      </trkpt>
      <trkpt lat="42.18359" lon="-8.6183">
        <ele>72.72</ele>
        <time>2019-06-04T06:44:42Z</time>
      </trkpt>
      <trkpt lat="42.18378" lon="-8.61832">
        <ele>71.76</ele>
        <time>2019-06-04T06:44:58Z</time>
      </trkpt>
      <trkpt lat="42.18398" lon="-8.61842">
        <ele>72.24</ele>
        <time>2019-06-04T06:45:14Z</time>
      </trkpt>
      <trkpt lat="42.18409" lon="-8.61837">
        <ele>72.24</ele>
        <time>2019-06-04T06:45:24Z</time>
      </trkpt>
      <trkpt lat="42.18416" lon="-8.6183">
        <ele>72.24</ele>
        <time>2019-06-04T06:45:37Z</time>
      </trkpt>
      <trkpt lat="42.18428" lon="-8.61824">
        <ele>72.72</ele>
        <time>2019-06-04T06:45:48Z</time>
      </trkpt>
      <trkpt lat="42.18448" lon="-8.6182">
        <ele>73.2</ele>
        <time>2019-06-04T06:46:05Z</time>
      </trkpt>
      <trkpt lat="42.18455" lon="-8.61818">
        <ele>73.2</ele>
        <time>2019-06-04T06:46:20Z</time>
      </trkpt>
      <trkpt lat="42.18457" lon="-8.61816">
        <ele>73.2</ele>
        <time>2019-06-04T06:46:23Z</time>
      </trkpt>
      <trkpt lat="42.18472" lon="-8.61802">
        <ele>72.24</ele>
        <time>2019-06-04T06:46:37Z</time>
      </trkpt>
      <trkpt lat="42.18475" lon="-8.61797">
        <ele>72.72</ele>
        <time>2019-06-04T06:46:41Z</time>
      </trkpt>
      <trkpt lat="42.18489" lon="-8.61779">
        <ele>70.31</ele>
        <time>2019-06-04T06:46:56Z</time>
      </trkpt>
      <trkpt lat="42.18494" lon="-8.61773">
        <ele>69.83</ele>
        <time>2019-06-04T06:47:01Z</time>
      </trkpt>
      <trkpt lat="42.18509" lon="-8.61755">
        <ele>67.43</ele>
        <time>2019-06-04T06:47:16Z</time>
      </trkpt>
      <trkpt lat="42.18509" lon="-8.61749">
        <ele>67.43</ele>
        <time>2019-06-04T06:47:29Z</time>
      </trkpt>
      <trkpt lat="42.18509" lon="-8.61748">
        <ele>67.91</ele>
        <time>2019-06-04T06:47:52Z</time>
      </trkpt>
      <trkpt lat="42.18512" lon="-8.61743">
        <ele>67.43</ele>
        <time>2019-06-04T06:47:58Z</time>
      </trkpt>
      <trkpt lat="42.18518" lon="-8.61736">
        <ele>66.95</ele>
        <time>2019-06-04T06:48:04Z</time>
      </trkpt>
      <trkpt lat="42.18524" lon="-8.61727">
        <ele>66.95</ele>
        <time>2019-06-04T06:48:11Z</time>
      </trkpt>
      <trkpt lat="42.18528" lon="-8.61717">
        <ele>66.95</ele>
        <time>2019-06-04T06:48:17Z</time>
      </trkpt>
      <trkpt lat="42.18534" lon="-8.61709">
        <ele>66.95</ele>
        <time>2019-06-04T06:48:25Z</time>
      </trkpt>
      <trkpt lat="42.18546" lon="-8.61688">
        <ele>66.47</ele>
        <time>2019-06-04T06:48:41Z</time>
      </trkpt>
      <trkpt lat="42.18549" lon="-8.61683">
        <ele>66.47</ele>
        <time>2019-06-04T06:48:44Z</time>
      </trkpt>
      <trkpt lat="42.1856" lon="-8.6166">
        <ele>66.47</ele>
        <time>2019-06-04T06:49:00Z</time>
      </trkpt>
      <trkpt lat="42.18566" lon="-8.61651">
        <ele>66.47</ele>
        <time>2019-06-04T06:49:08Z</time>
      </trkpt>
      <trkpt lat="42.18568" lon="-8.61648">
        <ele>65.99</ele>
        <time>2019-06-04T06:49:10Z</time>
      </trkpt>
      <trkpt lat="42.18583" lon="-8.6162">
        <ele>65.03</ele>
        <time>2019-06-04T06:49:29Z</time>
      </trkpt>
      <trkpt lat="42.18587" lon="-8.61611">
        <ele>65.03</ele>
        <time>2019-06-04T06:49:43Z</time>
      </trkpt>
      <trkpt lat="42.18588" lon="-8.6161">
        <ele>65.03</ele>
        <time>2019-06-04T06:49:44Z</time>
      </trkpt>
      <trkpt lat="42.18591" lon="-8.61606">
        <ele>65.03</ele>
        <time>2019-06-04T06:49:48Z</time>
      </trkpt>
      <trkpt lat="42.18594" lon="-8.61604">
        <ele>65.51</ele>
        <time>2019-06-04T06:49:51Z</time>
      </trkpt>
      <trkpt lat="42.18609" lon="-8.61592">
        <ele>64.55</ele>
        <time>2019-06-04T06:50:04Z</time>
      </trkpt>
      <trkpt lat="42.18612" lon="-8.6159">
        <ele>65.03</ele>
        <time>2019-06-04T06:50:07Z</time>
      </trkpt>
      <trkpt lat="42.18626" lon="-8.61574">
        <ele>63.58</ele>
        <time>2019-06-04T06:50:21Z</time>
      </trkpt>
      <trkpt lat="42.18628" lon="-8.6157">
        <ele>63.58</ele>
        <time>2019-06-04T06:50:24Z</time>
      </trkpt>
      <trkpt lat="42.18632" lon="-8.61561">
        <ele>64.07</ele>
        <time>2019-06-04T06:50:30Z</time>
      </trkpt>
      <trkpt lat="42.18633" lon="-8.61555">
        <ele>63.1</ele>
        <time>2019-06-04T06:50:34Z</time>
      </trkpt>
      <trkpt lat="42.18638" lon="-8.61544">
        <ele>62.62</ele>
        <time>2019-06-04T06:50:41Z</time>
      </trkpt>
      <trkpt lat="42.18653" lon="-8.61525">
        <ele>61.66</ele>
        <time>2019-06-04T06:50:58Z</time>
      </trkpt>
      <trkpt lat="42.18672" lon="-8.61517">
        <ele>59.74</ele>
        <time>2019-06-04T06:51:13Z</time>
      </trkpt>
      <trkpt lat="42.18685" lon="-8.61518">
        <ele>58.3</ele>
        <time>2019-06-04T06:51:27Z</time>
      </trkpt>
      <trkpt lat="42.18696" lon="-8.61519">
        <ele>57.34</ele>
        <time>2019-06-04T06:51:39Z</time>
      </trkpt>
      <trkpt lat="42.18713" lon="-8.61512">
        <ele>56.37</ele>
        <time>2019-06-04T06:51:54Z</time>
      </trkpt>
      <trkpt lat="42.18731" lon="-8.61504">
        <ele>55.89</ele>
        <time>2019-06-04T06:52:11Z</time>
      </trkpt>
      <trkpt lat="42.18742" lon="-8.61495">
        <ele>54.93</ele>
        <time>2019-06-04T06:52:28Z</time>
      </trkpt>
      <trkpt lat="42.18748" lon="-8.61489">
        <ele>53.97</ele>
        <time>2019-06-04T06:52:35Z</time>
      </trkpt>
      <trkpt lat="42.18757" lon="-8.61485">
        <ele>54.45</ele>
        <time>2019-06-04T06:52:43Z</time>
      </trkpt>
      <trkpt lat="42.18775" lon="-8.6148">
        <ele>54.93</ele>
        <time>2019-06-04T06:52:56Z</time>
      </trkpt>
      <trkpt lat="42.18791" lon="-8.61477">
        <ele>54.93</ele>
        <time>2019-06-04T06:53:10Z</time>
      </trkpt>
      <trkpt lat="42.18809" lon="-8.6148">
        <ele>55.41</ele>
        <time>2019-06-04T06:53:25Z</time>
      </trkpt>
      <trkpt lat="42.18826" lon="-8.61484">
        <ele>56.37</ele>
        <time>2019-06-04T06:53:41Z</time>
      </trkpt>
      <trkpt lat="42.18839" lon="-8.61475">
        <ele>56.86</ele>
        <time>2019-06-04T06:53:55Z</time>
      </trkpt>
      <trkpt lat="42.18848" lon="-8.6147">
        <ele>57.34</ele>
        <time>2019-06-04T06:54:04Z</time>
      </trkpt>
      <trkpt lat="42.18858" lon="-8.61465">
        <ele>58.3</ele>
        <time>2019-06-04T06:54:13Z</time>
      </trkpt>
      <trkpt lat="42.18876" lon="-8.61454">
        <ele>60.22</ele>
        <time>2019-06-04T06:54:28Z</time>
      </trkpt>
      <trkpt lat="42.18891" lon="-8.61441">
        <ele>60.22</ele>
        <time>2019-06-04T06:54:42Z</time>
      </trkpt>
      <trkpt lat="42.18895" lon="-8.61434">
        <ele>59.74</ele>
        <time>2019-06-04T06:54:48Z</time>
      </trkpt>
      <trkpt lat="42.18909" lon="-8.61409">
        <ele>61.18</ele>
        <time>2019-06-04T06:55:08Z</time>
      </trkpt>
      <trkpt lat="42.18921" lon="-8.61383">
        <ele>62.14</ele>
        <time>2019-06-04T06:55:26Z</time>
      </trkpt>
      <trkpt lat="42.18932" lon="-8.61363">
        <ele>63.1</ele>
        <time>2019-06-04T06:55:41Z</time>
      </trkpt>
      <trkpt lat="42.18945" lon="-8.61345">
        <ele>64.07</ele>
        <time>2019-06-04T06:55:56Z</time>
      </trkpt>
      <trkpt lat="42.18947" lon="-8.61342">
        <ele>64.07</ele>
        <time>2019-06-04T06:55:59Z</time>
      </trkpt>
      <trkpt lat="42.18959" lon="-8.61329">
        <ele>63.58</ele>
        <time>2019-06-04T06:56:13Z</time>
      </trkpt>
      <trkpt lat="42.18971" lon="-8.61315">
        <ele>63.58</ele>
        <time>2019-06-04T06:56:27Z</time>
      </trkpt>
      <trkpt lat="42.18981" lon="-8.61304">
        <ele>64.07</ele>
        <time>2019-06-04T06:56:40Z</time>
      </trkpt>
      <trkpt lat="42.18988" lon="-8.61298">
        <ele>64.07</ele>
        <time>2019-06-04T06:56:46Z</time>
      </trkpt>
      <trkpt lat="42.18998" lon="-8.61289">
        <ele>64.55</ele>
        <time>2019-06-04T06:56:57Z</time>
      </trkpt>
      <trkpt lat="42.19014" lon="-8.61284">
        <ele>64.55</ele>
        <time>2019-06-04T06:57:09Z</time>
      </trkpt>
      <trkpt lat="42.19031" lon="-8.61271">
        <ele>64.55</ele>
        <time>2019-06-04T06:57:23Z</time>
      </trkpt>
      <trkpt lat="42.19047" lon="-8.61264">
        <ele>65.03</ele>
        <time>2019-06-04T06:57:36Z</time>
      </trkpt>
      <trkpt lat="42.19052" lon="-8.61263">
        <ele>65.51</ele>
        <time>2019-06-04T06:57:40Z</time>
      </trkpt>
      <trkpt lat="42.19068" lon="-8.61258">
        <ele>65.99</ele>
        <time>2019-06-04T06:57:55Z</time>
      </trkpt>
      <trkpt lat="42.19083" lon="-8.61256">
        <ele>66.95</ele>
        <time>2019-06-04T06:58:08Z</time>
      </trkpt>
      <trkpt lat="42.19102" lon="-8.61259">
        <ele>66.47</ele>
        <time>2019-06-04T06:58:22Z</time>
      </trkpt>
      <trkpt lat="42.1912" lon="-8.61257">
        <ele>65.51</ele>
        <time>2019-06-04T06:58:38Z</time>
      </trkpt>
      <trkpt lat="42.19133" lon="-8.6125">
        <ele>65.03</ele>
        <time>2019-06-04T06:58:49Z</time>
      </trkpt>
      <trkpt lat="42.19144" lon="-8.61247">
        <ele>65.03</ele>
        <time>2019-06-04T06:58:58Z</time>
      </trkpt>
      <trkpt lat="42.19147" lon="-8.61244">
        <ele>65.03</ele>
        <time>2019-06-04T06:59:01Z</time>
      </trkpt>
      <trkpt lat="42.19157" lon="-8.61234">
        <ele>64.55</ele>
        <time>2019-06-04T06:59:10Z</time>
      </trkpt>
      <trkpt lat="42.19169" lon="-8.61226">
        <ele>65.03</ele>
        <time>2019-06-04T06:59:18Z</time>
      </trkpt>
      <trkpt lat="42.19178" lon="-8.61218">
        <ele>64.55</ele>
        <time>2019-06-04T06:59:26Z</time>
      </trkpt>
      <trkpt lat="42.19197" lon="-8.61211">
        <ele>64.55</ele>
        <time>2019-06-04T06:59:39Z</time>
      </trkpt>
      <trkpt lat="42.19215" lon="-8.61205">
        <ele>63.1</ele>
        <time>2019-06-04T06:59:52Z</time>
      </trkpt>
      <trkpt lat="42.1922" lon="-8.61204">
        <ele>63.1</ele>
        <time>2019-06-04T06:59:55Z</time>
      </trkpt>
      <trkpt lat="42.19235" lon="-8.61196">
        <ele>61.18</ele>
        <time>2019-06-04T07:00:10Z</time>
      </trkpt>
      <trkpt lat="42.19249" lon="-8.61193">
        <ele>61.18</ele>
        <time>2019-06-04T07:00:22Z</time>
      </trkpt>
      <trkpt lat="42.19252" lon="-8.61192">
        <ele>61.18</ele>
        <time>2019-06-04T07:00:25Z</time>
      </trkpt>
      <trkpt lat="42.19268" lon="-8.61183">
        <ele>60.7</ele>
        <time>2019-06-04T07:00:39Z</time>
      </trkpt>
      <trkpt lat="42.19272" lon="-8.61168">
        <ele>60.7</ele>
        <time>2019-06-04T07:00:52Z</time>
      </trkpt>
      <trkpt lat="42.19279" lon="-8.61157">
        <ele>59.74</ele>
        <time>2019-06-04T07:01:13Z</time>
      </trkpt>
      <trkpt lat="42.19289" lon="-8.61144">
        <ele>59.26</ele>
        <time>2019-06-04T07:01:25Z</time>
      </trkpt>
      <trkpt lat="42.19293" lon="-8.61138">
        <ele>58.78</ele>
        <time>2019-06-04T07:01:30Z</time>
      </trkpt>
      <trkpt lat="42.19311" lon="-8.61118">
        <ele>57.82</ele>
        <time>2019-06-04T07:01:45Z</time>
      </trkpt>
      <trkpt lat="42.19321" lon="-8.61095">
        <ele>56.86</ele>
        <time>2019-06-04T07:02:00Z</time>
      </trkpt>
      <trkpt lat="42.19332" lon="-8.61079">
        <ele>55.89</ele>
        <time>2019-06-04T07:02:12Z</time>
      </trkpt>
      <trkpt lat="42.19352" lon="-8.61071">
        <ele>56.37</ele>
        <time>2019-06-04T07:02:29Z</time>
      </trkpt>
      <trkpt lat="42.19369" lon="-8.61064">
        <ele>57.34</ele>
        <time>2019-06-04T07:02:44Z</time>
      </trkpt>
      <trkpt lat="42.19381" lon="-8.61061">
        <ele>56.86</ele>
        <time>2019-06-04T07:02:53Z</time>
      </trkpt>
      <trkpt lat="42.19398" lon="-8.61055">
        <ele>57.82</ele>
        <time>2019-06-04T07:03:10Z</time>
      </trkpt>
      <trkpt lat="42.19406" lon="-8.61053">
        <ele>57.82</ele>
        <time>2019-06-04T07:03:22Z</time>
      </trkpt>
      <trkpt lat="42.19416" lon="-8.61046">
        <ele>58.3</ele>
        <time>2019-06-04T07:03:35Z</time>
      </trkpt>
      <trkpt lat="42.19431" lon="-8.61037">
        <ele>58.3</ele>
        <time>2019-06-04T07:03:50Z</time>
      </trkpt>
      <trkpt lat="42.19445" lon="-8.61029">
        <ele>58.3</ele>
        <time>2019-06-04T07:04:03Z</time>
      </trkpt>
      <trkpt lat="42.19464" lon="-8.61021">
        <ele>57.82</ele>
        <time>2019-06-04T07:04:19Z</time>
      </trkpt>
      <trkpt lat="42.19482" lon="-8.6101">
        <ele>57.34</ele>
        <time>2019-06-04T07:04:34Z</time>
      </trkpt>
      <trkpt lat="42.19495" lon="-8.61001">
        <ele>58.3</ele>
        <time>2019-06-04T07:04:46Z</time>
      </trkpt>
      <trkpt lat="42.19512" lon="-8.60995">
        <ele>58.3</ele>
        <time>2019-06-04T07:05:00Z</time>
      </trkpt>
      <trkpt lat="42.19528" lon="-8.60993">
        <ele>58.3</ele>
        <time>2019-06-04T07:05:12Z</time>
      </trkpt>
      <trkpt lat="42.19546" lon="-8.60987">
        <ele>58.3</ele>
        <time>2019-06-04T07:05:26Z</time>
      </trkpt>
      <trkpt lat="42.19563" lon="-8.60985">
        <ele>58.78</ele>
        <time>2019-06-04T07:05:39Z</time>
      </trkpt>
      <trkpt lat="42.19579" lon="-8.60982">
        <ele>59.26</ele>
        <time>2019-06-04T07:05:51Z</time>
      </trkpt>
      <trkpt lat="42.19593" lon="-8.60976">
        <ele>58.78</ele>
        <time>2019-06-04T07:06:06Z</time>
      </trkpt>
      <trkpt lat="42.19609" lon="-8.60971">
        <ele>58.78</ele>
        <time>2019-06-04T07:06:21Z</time>
      </trkpt>
      <trkpt lat="42.19622" lon="-8.60966">
        <ele>58.78</ele>
        <time>2019-06-04T07:06:32Z</time>
      </trkpt>
      <trkpt lat="42.19637" lon="-8.60962">
        <ele>57.82</ele>
        <time>2019-06-04T07:06:45Z</time>
      </trkpt>
      <trkpt lat="42.19644" lon="-8.6096">
        <ele>58.3</ele>
        <time>2019-06-04T07:06:51Z</time>
      </trkpt>
      <trkpt lat="42.19662" lon="-8.60952">
        <ele>58.3</ele>
        <time>2019-06-04T07:07:06Z</time>
      </trkpt>
      <trkpt lat="42.19687" lon="-8.60946">
        <ele>58.3</ele>
        <time>2019-06-04T07:07:22Z</time>
      </trkpt>
      <trkpt lat="42.19695" lon="-8.60943">
        <ele>57.82</ele>
        <time>2019-06-04T07:07:29Z</time>
      </trkpt>
      <trkpt lat="42.1971" lon="-8.60934">
        <ele>58.78</ele>
        <time>2019-06-04T07:07:44Z</time>
      </trkpt>
      <trkpt lat="42.19717" lon="-8.6093">
        <ele>58.78</ele>
        <time>2019-06-04T07:07:50Z</time>
      </trkpt>
      <trkpt lat="42.19723" lon="-8.60929">
        <ele>58.78</ele>
        <time>2019-06-04T07:08:02Z</time>
      </trkpt>
      <trkpt lat="42.1973" lon="-8.6093">
        <ele>58.3</ele>
        <time>2019-06-04T07:08:17Z</time>
      </trkpt>
      <trkpt lat="42.19735" lon="-8.60926">
        <ele>58.3</ele>
        <time>2019-06-04T07:08:37Z</time>
      </trkpt>
      <trkpt lat="42.1974" lon="-8.60921">
        <ele>58.3</ele>
        <time>2019-06-04T07:08:51Z</time>
      </trkpt>
      <trkpt lat="42.19737" lon="-8.60919">
        <ele>57.82</ele>
        <time>2019-06-04T07:09:06Z</time>
      </trkpt>
      <trkpt lat="42.19736" lon="-8.60915">
        <ele>58.3</ele>
        <time>2019-06-04T07:09:19Z</time>
      </trkpt>
      <trkpt lat="42.19738" lon="-8.60916">
        <ele>58.3</ele>
        <time>2019-06-04T07:09:36Z</time>
      </trkpt>
      <trkpt lat="42.19747" lon="-8.60903">
        <ele>58.3</ele>
        <time>2019-06-04T07:09:50Z</time>
      </trkpt>
      <trkpt lat="42.19759" lon="-8.60889">
        <ele>58.78</ele>
        <time>2019-06-04T07:10:03Z</time>
      </trkpt>
      <trkpt lat="42.1976" lon="-8.60887">
        <ele>59.26</ele>
        <time>2019-06-04T07:10:05Z</time>
      </trkpt>
      <trkpt lat="42.19775" lon="-8.60874">
        <ele>58.3</ele>
        <time>2019-06-04T07:10:18Z</time>
      </trkpt>
      <trkpt lat="42.19794" lon="-8.6086">
        <ele>58.78</ele>
        <time>2019-06-04T07:10:34Z</time>
      </trkpt>
      <trkpt lat="42.19811" lon="-8.60851">
        <ele>58.3</ele>
        <time>2019-06-04T07:10:50Z</time>
      </trkpt>
      <trkpt lat="42.19825" lon="-8.60848">
        <ele>58.78</ele>
        <time>2019-06-04T07:11:04Z</time>
      </trkpt>
      <trkpt lat="42.19844" lon="-8.60864">
        <ele>58.3</ele>
        <time>2019-06-04T07:11:21Z</time>
      </trkpt>
      <trkpt lat="42.19863" lon="-8.6087">
        <ele>59.26</ele>
        <time>2019-06-04T07:11:36Z</time>
      </trkpt>
      <trkpt lat="42.1988" lon="-8.60875">
        <ele>59.26</ele>
        <time>2019-06-04T07:11:51Z</time>
      </trkpt>
      <trkpt lat="42.19882" lon="-8.60876">
        <ele>59.26</ele>
        <time>2019-06-04T07:11:53Z</time>
      </trkpt>
      <trkpt lat="42.199" lon="-8.60882">
        <ele>60.22</ele>
        <time>2019-06-04T07:12:06Z</time>
      </trkpt>
      <trkpt lat="42.19914" lon="-8.60885">
        <ele>59.74</ele>
        <time>2019-06-04T07:12:21Z</time>
      </trkpt>
      <trkpt lat="42.19916" lon="-8.60884">
        <ele>60.22</ele>
        <time>2019-06-04T07:12:24Z</time>
      </trkpt>
      <trkpt lat="42.19934" lon="-8.60878">
        <ele>60.22</ele>
        <time>2019-06-04T07:12:39Z</time>
      </trkpt>
      <trkpt lat="42.19953" lon="-8.60874">
        <ele>61.66</ele>
        <time>2019-06-04T07:12:54Z</time>
      </trkpt>
      <trkpt lat="42.19969" lon="-8.60878">
        <ele>62.14</ele>
        <time>2019-06-04T07:13:09Z</time>
      </trkpt>
      <trkpt lat="42.19981" lon="-8.60886">
        <ele>62.14</ele>
        <time>2019-06-04T07:13:24Z</time>
      </trkpt>
      <trkpt lat="42.19992" lon="-8.60888">
        <ele>63.58</ele>
        <time>2019-06-04T07:13:36Z</time>
      </trkpt>
      <trkpt lat="42.20012" lon="-8.60875">
        <ele>64.55</ele>
        <time>2019-06-04T07:13:55Z</time>
      </trkpt>
      <trkpt lat="42.20026" lon="-8.60869">
        <ele>64.55</ele>
        <time>2019-06-04T07:14:07Z</time>
      </trkpt>
      <trkpt lat="42.20031" lon="-8.60863">
        <ele>65.03</ele>
        <time>2019-06-04T07:14:12Z</time>
      </trkpt>
      <trkpt lat="42.20048" lon="-8.60856">
        <ele>65.51</ele>
        <time>2019-06-04T07:14:28Z</time>
      </trkpt>
      <trkpt lat="42.20052" lon="-8.60857">
        <ele>65.99</ele>
        <time>2019-06-04T07:14:31Z</time>
      </trkpt>
      <trkpt lat="42.20068" lon="-8.60864">
        <ele>66.47</ele>
        <time>2019-06-04T07:14:47Z</time>
      </trkpt>
      <trkpt lat="42.20085" lon="-8.60871">
        <ele>67.43</ele>
        <time>2019-06-04T07:15:03Z</time>
      </trkpt>
      <trkpt lat="42.20088" lon="-8.6087">
        <ele>67.43</ele>
        <time>2019-06-04T07:15:06Z</time>
      </trkpt>
      <trkpt lat="42.20101" lon="-8.60857">
        <ele>67.91</ele>
        <time>2019-06-04T07:15:22Z</time>
      </trkpt>
      <trkpt lat="42.20106" lon="-8.60852">
        <ele>68.87</ele>
        <time>2019-06-04T07:15:29Z</time>
      </trkpt>
      <trkpt lat="42.20112" lon="-8.60846">
        <ele>68.87</ele>
        <time>2019-06-04T07:15:35Z</time>
      </trkpt>
      <trkpt lat="42.20115" lon="-8.60843">
        <ele>68.87</ele>
        <time>2019-06-04T07:15:38Z</time>
      </trkpt>
      <trkpt lat="42.20117" lon="-8.60842">
        <ele>69.35</ele>
        <time>2019-06-04T07:15:40Z</time>
      </trkpt>
      <trkpt lat="42.20119" lon="-8.60839">
        <ele>69.83</ele>
        <time>2019-06-04T07:15:43Z</time>
      </trkpt>
      <trkpt lat="42.20121" lon="-8.60837">
        <ele>69.83</ele>
        <time>2019-06-04T07:15:45Z</time>
      </trkpt>
      <trkpt lat="42.20132" lon="-8.60827">
        <ele>70.31</ele>
        <time>2019-06-04T07:15:58Z</time>
      </trkpt>
      <trkpt lat="42.20143" lon="-8.60814">
        <ele>72.72</ele>
        <time>2019-06-04T07:16:15Z</time>
      </trkpt>
      <trkpt lat="42.2016" lon="-8.60807">
        <ele>74.64</ele>
        <time>2019-06-04T07:16:31Z</time>
      </trkpt>
      <trkpt lat="42.20169" lon="-8.60794">
        <ele>75.6</ele>
        <time>2019-06-04T07:16:46Z</time>
      </trkpt>
      <trkpt lat="42.20178" lon="-8.60782">
        <ele>76.56</ele>
        <time>2019-06-04T07:16:59Z</time>
      </trkpt>
      <trkpt lat="42.20182" lon="-8.60778">
        <ele>77.04</ele>
        <time>2019-06-04T07:17:03Z</time>
      </trkpt>
      <trkpt lat="42.20195" lon="-8.60759">
        <ele>77.52</ele>
        <time>2019-06-04T07:17:21Z</time>
      </trkpt>
      <trkpt lat="42.20206" lon="-8.60742">
        <ele>78</ele>
        <time>2019-06-04T07:17:36Z</time>
      </trkpt>
      <trkpt lat="42.20215" lon="-8.6072">
        <ele>77.52</ele>
        <time>2019-06-04T07:17:52Z</time>
      </trkpt>
      <trkpt lat="42.20225" lon="-8.607">
        <ele>76.56</ele>
        <time>2019-06-04T07:18:07Z</time>
      </trkpt>
      <trkpt lat="42.20227" lon="-8.60695">
        <ele>77.04</ele>
        <time>2019-06-04T07:18:11Z</time>
      </trkpt>
      <trkpt lat="42.20238" lon="-8.60677">
        <ele>77.04</ele>
        <time>2019-06-04T07:18:25Z</time>
      </trkpt>
      <trkpt lat="42.20241" lon="-8.60673">
        <ele>77.52</ele>
        <time>2019-06-04T07:18:30Z</time>
      </trkpt>
      <trkpt lat="42.20253" lon="-8.60659">
        <ele>77.04</ele>
        <time>2019-06-04T07:18:43Z</time>
      </trkpt>
      <trkpt lat="42.20261" lon="-8.6065">
        <ele>78</ele>
        <time>2019-06-04T07:18:52Z</time>
      </trkpt>
      <trkpt lat="42.20263" lon="-8.60648">
        <ele>78</ele>
        <time>2019-06-04T07:18:55Z</time>
      </trkpt>
      <trkpt lat="42.20275" lon="-8.60634">
        <ele>78.48</ele>
        <time>2019-06-04T07:19:08Z</time>
      </trkpt>
      <trkpt lat="42.20293" lon="-8.60617">
        <ele>78.97</ele>
        <time>2019-06-04T07:19:27Z</time>
      </trkpt>
      <trkpt lat="42.20304" lon="-8.60608">
        <ele>78.97</ele>
        <time>2019-06-04T07:19:39Z</time>
      </trkpt>
      <trkpt lat="42.20323" lon="-8.60604">
        <ele>78.97</ele>
        <time>2019-06-04T07:19:55Z</time>
      </trkpt>
      <trkpt lat="42.20333" lon="-8.60596">
        <ele>79.93</ele>
        <time>2019-06-04T07:20:08Z</time>
      </trkpt>
      <trkpt lat="42.20348" lon="-8.60588">
        <ele>80.41</ele>
        <time>2019-06-04T07:20:23Z</time>
      </trkpt>
      <trkpt lat="42.20362" lon="-8.60579">
        <ele>80.41</ele>
        <time>2019-06-04T07:20:39Z</time>
      </trkpt>
      <trkpt lat="42.20368" lon="-8.60578">
        <ele>80.41</ele>
        <time>2019-06-04T07:20:58Z</time>
      </trkpt>
      <trkpt lat="42.20371" lon="-8.60578">
        <ele>79.93</ele>
        <time>2019-06-04T07:21:21Z</time>
      </trkpt>
      <trkpt lat="42.20384" lon="-8.60573">
        <ele>80.89</ele>
        <time>2019-06-04T07:21:35Z</time>
      </trkpt>
      <trkpt lat="42.20389" lon="-8.60574">
        <ele>81.85</ele>
        <time>2019-06-04T07:21:49Z</time>
      </trkpt>
      <trkpt lat="42.20394" lon="-8.60579">
        <ele>82.81</ele>
        <time>2019-06-04T07:21:56Z</time>
      </trkpt>
      <trkpt lat="42.204" lon="-8.60584">
        <ele>83.29</ele>
        <time>2019-06-04T07:22:09Z</time>
      </trkpt>
      <trkpt lat="42.20403" lon="-8.6059">
        <ele>83.29</ele>
        <time>2019-06-04T07:22:29Z</time>
      </trkpt>
      <trkpt lat="42.20407" lon="-8.606">
        <ele>84.73</ele>
        <time>2019-06-04T07:22:43Z</time>
      </trkpt>
      <trkpt lat="42.20411" lon="-8.60603">
        <ele>84.73</ele>
        <time>2019-06-04T07:22:50Z</time>
      </trkpt>
      <trkpt lat="42.20427" lon="-8.6061">
        <ele>86.18</ele>
        <time>2019-06-04T07:23:05Z</time>
      </trkpt>
      <trkpt lat="42.2044" lon="-8.60612">
        <ele>87.62</ele>
        <time>2019-06-04T07:23:20Z</time>
      </trkpt>
      <trkpt lat="42.20448" lon="-8.60616">
        <ele>88.58</ele>
        <time>2019-06-04T07:23:33Z</time>
      </trkpt>
      <trkpt lat="42.20455" lon="-8.60622">
        <ele>90.02</ele>
        <time>2019-06-04T07:23:44Z</time>
      </trkpt>
      <trkpt lat="42.20458" lon="-8.60625">
        <ele>90.98</ele>
        <time>2019-06-04T07:23:50Z</time>
      </trkpt>
      <trkpt lat="42.20462" lon="-8.60627">
        <ele>90.5</ele>
        <time>2019-06-04T07:23:54Z</time>
      </trkpt>
      <trkpt lat="42.20476" lon="-8.60635">
        <ele>92.42</ele>
        <time>2019-06-04T07:24:10Z</time>
      </trkpt>
      <trkpt lat="42.20495" lon="-8.60632">
        <ele>94.35</ele>
        <time>2019-06-04T07:24:26Z</time>
      </trkpt>
      <trkpt lat="42.20511" lon="-8.6063">
        <ele>96.75</ele>
        <time>2019-06-04T07:24:41Z</time>
      </trkpt>
      <trkpt lat="42.20526" lon="-8.6063">
        <ele>97.71</ele>
        <time>2019-06-04T07:24:55Z</time>
      </trkpt>
      <trkpt lat="42.20538" lon="-8.60627">
        <ele>99.63</ele>
        <time>2019-06-04T07:25:10Z</time>
      </trkpt>
      <trkpt lat="42.20555" lon="-8.60625">
        <ele>102.04</ele>
        <time>2019-06-04T07:25:25Z</time>
      </trkpt>
      <trkpt lat="42.20567" lon="-8.60631">
        <ele>103.48</ele>
        <time>2019-06-04T07:25:39Z</time>
      </trkpt>
      <trkpt lat="42.20571" lon="-8.60633">
        <ele>103.96</ele>
        <time>2019-06-04T07:25:44Z</time>
      </trkpt>
      <trkpt lat="42.20586" lon="-8.60635">
        <ele>106.84</ele>
        <time>2019-06-04T07:25:59Z</time>
      </trkpt>
      <trkpt lat="42.20593" lon="-8.60634">
        <ele>107.32</ele>
        <time>2019-06-04T07:26:14Z</time>
      </trkpt>
      <trkpt lat="42.20606" lon="-8.60635">
        <ele>107.81</ele>
        <time>2019-06-04T07:26:30Z</time>
      </trkpt>
      <trkpt lat="42.20609" lon="-8.60635">
        <ele>107.81</ele>
        <time>2019-06-04T07:26:52Z</time>
      </trkpt>
      <trkpt lat="42.20609" lon="-8.60635">
        <ele>107.81</ele>
        <time>2019-06-04T07:27:18Z</time>
      </trkpt>
      <trkpt lat="42.20609" lon="-8.60634">
        <ele>107.81</ele>
        <time>2019-06-04T07:27:39Z</time>
      </trkpt>
      <trkpt lat="42.20608" lon="-8.60634">
        <ele>107.32</ele>
        <time>2019-06-04T07:28:03Z</time>
      </trkpt>
      <trkpt lat="42.20607" lon="-8.60634">
        <ele>101.56</ele>
        <time>2019-06-04T07:28:11Z</time>
      </trkpt>
      <trkpt lat="42.20607" lon="-8.60634">
        <ele>107.32</ele>
        <time>2019-06-04T07:28:12Z</time>
      </trkpt>
      <trkpt lat="42.20608" lon="-8.60634">
        <ele>112.13</ele>
        <time>2019-06-04T07:28:13Z</time>
      </trkpt>
      <trkpt lat="42.20608" lon="-8.60633">
        <ele>106.36</ele>
        <time>2019-06-04T07:28:14Z</time>
      </trkpt>
      <trkpt lat="42.20607" lon="-8.60637">
        <ele>107.32</ele>
        <time>2019-06-04T07:28:42Z</time>
      </trkpt>
      <trkpt lat="42.20605" lon="-8.60639">
        <ele>106.84</ele>
        <time>2019-06-04T07:29:04Z</time>
      </trkpt>
      <trkpt lat="42.20616" lon="-8.60648">
        <ele>108.77</ele>
        <time>2019-06-04T07:29:19Z</time>
      </trkpt>
      <trkpt lat="42.2063" lon="-8.60658">
        <ele>112.13</ele>
        <time>2019-06-04T07:29:35Z</time>
      </trkpt>
      <trkpt lat="42.20638" lon="-8.60667">
        <ele>112.13</ele>
        <time>2019-06-04T07:29:45Z</time>
      </trkpt>
      <trkpt lat="42.20644" lon="-8.60671">
        <ele>113.57</ele>
        <time>2019-06-04T07:29:52Z</time>
      </trkpt>
      <trkpt lat="42.20658" lon="-8.60678">
        <ele>115.5</ele>
        <time>2019-06-04T07:30:07Z</time>
      </trkpt>
      <trkpt lat="42.20672" lon="-8.60688">
        <ele>117.9</ele>
        <time>2019-06-04T07:30:23Z</time>
      </trkpt>
      <trkpt lat="42.20687" lon="-8.60698">
        <ele>119.82</ele>
        <time>2019-06-04T07:30:40Z</time>
      </trkpt>
      <trkpt lat="42.20699" lon="-8.60708">
        <ele>120.78</ele>
        <time>2019-06-04T07:30:56Z</time>
      </trkpt>
      <trkpt lat="42.2071" lon="-8.60719">
        <ele>122.22</ele>
        <time>2019-06-04T07:31:11Z</time>
      </trkpt>
      <trkpt lat="42.20721" lon="-8.60732">
        <ele>124.15</ele>
        <time>2019-06-04T07:31:26Z</time>
      </trkpt>
      <trkpt lat="42.20733" lon="-8.60743">
        <ele>125.11</ele>
        <time>2019-06-04T07:31:38Z</time>
      </trkpt>
      <trkpt lat="42.20742" lon="-8.60758">
        <ele>127.03</ele>
        <time>2019-06-04T07:31:53Z</time>
      </trkpt>
      <trkpt lat="42.20751" lon="-8.60769">
        <ele>129.43</ele>
        <time>2019-06-04T07:32:08Z</time>
      </trkpt>
      <trkpt lat="42.20762" lon="-8.60778">
        <ele>130.4</ele>
        <time>2019-06-04T07:32:23Z</time>
      </trkpt>
      <trkpt lat="42.20774" lon="-8.60787">
        <ele>132.32</ele>
        <time>2019-06-04T07:32:38Z</time>
      </trkpt>
      <trkpt lat="42.20784" lon="-8.60794">
        <ele>133.76</ele>
        <time>2019-06-04T07:32:53Z</time>
      </trkpt>
      <trkpt lat="42.20802" lon="-8.60809">
        <ele>136.16</ele>
        <time>2019-06-04T07:33:11Z</time>
      </trkpt>
      <trkpt lat="42.20817" lon="-8.60823">
        <ele>138.09</ele>
        <time>2019-06-04T07:33:28Z</time>
      </trkpt>
      <trkpt lat="42.20831" lon="-8.60835">
        <ele>139.53</ele>
        <time>2019-06-04T07:33:44Z</time>
      </trkpt>
      <trkpt lat="42.2084" lon="-8.60841">
        <ele>142.89</ele>
        <time>2019-06-04T07:33:54Z</time>
      </trkpt>
      <trkpt lat="42.20852" lon="-8.60854">
        <ele>143.37</ele>
        <time>2019-06-04T07:34:12Z</time>
      </trkpt>
      <trkpt lat="42.20857" lon="-8.6086">
        <ele>144.34</ele>
        <time>2019-06-04T07:34:22Z</time>
      </trkpt>
      <trkpt lat="42.20866" lon="-8.60873">
        <ele>146.74</ele>
        <time>2019-06-04T07:34:37Z</time>
      </trkpt>
      <trkpt lat="42.20866" lon="-8.60874">
        <ele>146.26</ele>
        <time>2019-06-04T07:34:38Z</time>
      </trkpt>
      <trkpt lat="42.20871" lon="-8.60878">
        <ele>147.7</ele>
        <time>2019-06-04T07:34:45Z</time>
      </trkpt>
      <trkpt lat="42.20886" lon="-8.60885">
        <ele>149.62</ele>
        <time>2019-06-04T07:35:03Z</time>
      </trkpt>
      <trkpt lat="42.20899" lon="-8.60894">
        <ele>151.54</ele>
        <time>2019-06-04T07:35:18Z</time>
      </trkpt>
      <trkpt lat="42.20917" lon="-8.609">
        <ele>152.99</ele>
        <time>2019-06-04T07:35:34Z</time>
      </trkpt>
      <trkpt lat="42.20921" lon="-8.60901">
        <ele>151.54</ele>
        <time>2019-06-04T07:35:39Z</time>
      </trkpt>
      <trkpt lat="42.20929" lon="-8.609">
        <ele>152.03</ele>
        <time>2019-06-04T07:35:48Z</time>
      </trkpt>
      <trkpt lat="42.20946" lon="-8.60903">
        <ele>152.51</ele>
        <time>2019-06-04T07:36:05Z</time>
      </trkpt>
      <trkpt lat="42.20962" lon="-8.60902">
        <ele>151.54</ele>
        <time>2019-06-04T07:36:17Z</time>
      </trkpt>
      <trkpt lat="42.20987" lon="-8.60901">
        <ele>151.06</ele>
        <time>2019-06-04T07:36:35Z</time>
      </trkpt>
      <trkpt lat="42.21011" lon="-8.60901">
        <ele>150.58</ele>
        <time>2019-06-04T07:36:53Z</time>
      </trkpt>
      <trkpt lat="42.21013" lon="-8.60901">
        <ele>150.58</ele>
        <time>2019-06-04T07:36:55Z</time>
      </trkpt>
      <trkpt lat="42.21032" lon="-8.60903">
        <ele>149.14</ele>
        <time>2019-06-04T07:37:10Z</time>
      </trkpt>
      <trkpt lat="42.21054" lon="-8.6091">
        <ele>148.18</ele>
        <time>2019-06-04T07:37:28Z</time>
      </trkpt>
      <trkpt lat="42.21074" lon="-8.60914">
        <ele>146.74</ele>
        <time>2019-06-04T07:37:44Z</time>
      </trkpt>
      <trkpt lat="42.21092" lon="-8.60919">
        <ele>147.22</ele>
        <time>2019-06-04T07:37:58Z</time>
      </trkpt>
      <trkpt lat="42.21105" lon="-8.60925">
        <ele>145.78</ele>
        <time>2019-06-04T07:38:10Z</time>
      </trkpt>
      <trkpt lat="42.21116" lon="-8.60926">
        <ele>147.22</ele>
        <time>2019-06-04T07:38:26Z</time>
      </trkpt>
      <trkpt lat="42.21132" lon="-8.60931">
        <ele>145.78</ele>
        <time>2019-06-04T07:38:40Z</time>
      </trkpt>
      <trkpt lat="42.21145" lon="-8.60931">
        <ele>145.78</ele>
        <time>2019-06-04T07:38:54Z</time>
      </trkpt>
      <trkpt lat="42.21155" lon="-8.60934">
        <ele>145.3</ele>
        <time>2019-06-04T07:39:02Z</time>
      </trkpt>
      <trkpt lat="42.21175" lon="-8.60939">
        <ele>145.3</ele>
        <time>2019-06-04T07:39:18Z</time>
      </trkpt>
      <trkpt lat="42.21189" lon="-8.60938">
        <ele>145.78</ele>
        <time>2019-06-04T07:39:35Z</time>
      </trkpt>
      <trkpt lat="42.21188" lon="-8.60938">
        <ele>145.3</ele>
        <time>2019-06-04T07:39:55Z</time>
      </trkpt>
      <trkpt lat="42.21191" lon="-8.60948">
        <ele>145.78</ele>
        <time>2019-06-04T07:40:11Z</time>
      </trkpt>
      <trkpt lat="42.21192" lon="-8.60948">
        <ele>145.78</ele>
        <time>2019-06-04T07:40:20Z</time>
      </trkpt>
      <trkpt lat="42.21194" lon="-8.60953">
        <ele>145.78</ele>
        <time>2019-06-04T07:40:32Z</time>
      </trkpt>
      <trkpt lat="42.21192" lon="-8.60954">
        <ele>144.82</ele>
        <time>2019-06-04T07:40:54Z</time>
      </trkpt>
      <trkpt lat="42.21193" lon="-8.60957">
        <ele>145.3</ele>
        <time>2019-06-04T07:41:32Z</time>
      </trkpt>
      <trkpt lat="42.21191" lon="-8.60952">
        <ele>145.78</ele>
        <time>2019-06-04T07:41:49Z</time>
      </trkpt>
      <trkpt lat="42.21193" lon="-8.6095">
        <ele>145.78</ele>
        <time>2019-06-04T07:42:06Z</time>
      </trkpt>
      <trkpt lat="42.21194" lon="-8.60952">
        <ele>146.26</ele>
        <time>2019-06-04T07:42:30Z</time>
      </trkpt>
      <trkpt lat="42.21196" lon="-8.60945">
        <ele>146.26</ele>
        <time>2019-06-04T07:42:48Z</time>
      </trkpt>
      <trkpt lat="42.21212" lon="-8.60944">
        <ele>145.78</ele>
        <time>2019-06-04T07:43:03Z</time>
      </trkpt>
      <trkpt lat="42.21228" lon="-8.60946">
        <ele>145.3</ele>
        <time>2019-06-04T07:43:16Z</time>
      </trkpt>
      <trkpt lat="42.21232" lon="-8.60945">
        <ele>145.3</ele>
        <time>2019-06-04T07:43:23Z</time>
      </trkpt>
      <trkpt lat="42.21246" lon="-8.60943">
        <ele>145.78</ele>
        <time>2019-06-04T07:43:36Z</time>
      </trkpt>
      <trkpt lat="42.21249" lon="-8.60942">
        <ele>144.82</ele>
        <time>2019-06-04T07:43:38Z</time>
      </trkpt>
      <trkpt lat="42.21255" lon="-8.60943">
        <ele>144.82</ele>
        <time>2019-06-04T07:43:43Z</time>
      </trkpt>
      <trkpt lat="42.2127" lon="-8.60947">
        <ele>145.3</ele>
        <time>2019-06-04T07:43:55Z</time>
      </trkpt>
      <trkpt lat="42.21288" lon="-8.60948">
        <ele>144.34</ele>
        <time>2019-06-04T07:44:11Z</time>
      </trkpt>
      <trkpt lat="42.21291" lon="-8.60948">
        <ele>144.82</ele>
        <time>2019-06-04T07:44:13Z</time>
      </trkpt>
      <trkpt lat="42.21305" lon="-8.60946">
        <ele>145.3</ele>
        <time>2019-06-04T07:44:26Z</time>
      </trkpt>
      <trkpt lat="42.21312" lon="-8.60943">
        <ele>145.3</ele>
        <time>2019-06-04T07:44:45Z</time>
      </trkpt>
      <trkpt lat="42.21327" lon="-8.60938">
        <ele>144.82</ele>
        <time>2019-06-04T07:45:00Z</time>
      </trkpt>
      <trkpt lat="42.21339" lon="-8.60935">
        <ele>143.85</ele>
        <time>2019-06-04T07:45:15Z</time>
      </trkpt>
      <trkpt lat="42.21354" lon="-8.60934">
        <ele>143.37</ele>
        <time>2019-06-04T07:45:30Z</time>
      </trkpt>
      <trkpt lat="42.21371" lon="-8.6093">
        <ele>143.37</ele>
        <time>2019-06-04T07:45:44Z</time>
      </trkpt>
      <trkpt lat="42.21388" lon="-8.60924">
        <ele>142.89</ele>
        <time>2019-06-04T07:45:59Z</time>
      </trkpt>
      <trkpt lat="42.21402" lon="-8.60917">
        <ele>142.89</ele>
        <time>2019-06-04T07:46:13Z</time>
      </trkpt>
      <trkpt lat="42.21411" lon="-8.60916">
        <ele>142.41</ele>
        <time>2019-06-04T07:46:18Z</time>
      </trkpt>
      <trkpt lat="42.21427" lon="-8.60904">
        <ele>142.41</ele>
        <time>2019-06-04T07:46:33Z</time>
      </trkpt>
      <trkpt lat="42.21441" lon="-8.60893">
        <ele>141.45</ele>
        <time>2019-06-04T07:46:45Z</time>
      </trkpt>
      <trkpt lat="42.21466" lon="-8.60885">
        <ele>141.45</ele>
        <time>2019-06-04T07:46:58Z</time>
      </trkpt>
      <trkpt lat="42.21484" lon="-8.6087">
        <ele>140.97</ele>
        <time>2019-06-04T07:47:12Z</time>
      </trkpt>
      <trkpt lat="42.21498" lon="-8.60855">
        <ele>140.97</ele>
        <time>2019-06-04T07:47:26Z</time>
      </trkpt>
      <trkpt lat="42.21509" lon="-8.60844">
        <ele>140.49</ele>
        <time>2019-06-04T07:47:37Z</time>
      </trkpt>
      <trkpt lat="42.2151" lon="-8.60841">
        <ele>140.01</ele>
        <time>2019-06-04T07:47:39Z</time>
      </trkpt>
      <trkpt lat="42.21527" lon="-8.60825">
        <ele>139.53</ele>
        <time>2019-06-04T07:47:56Z</time>
      </trkpt>
      <trkpt lat="42.21537" lon="-8.6082">
        <ele>140.01</ele>
        <time>2019-06-04T07:48:03Z</time>
      </trkpt>
      <trkpt lat="42.21558" lon="-8.60809">
        <ele>139.05</ele>
        <time>2019-06-04T07:48:22Z</time>
      </trkpt>
      <trkpt lat="42.21564" lon="-8.60807">
        <ele>138.09</ele>
        <time>2019-06-04T07:48:26Z</time>
      </trkpt>
      <trkpt lat="42.21588" lon="-8.608">
        <ele>138.57</ele>
        <time>2019-06-04T07:48:44Z</time>
      </trkpt>
      <trkpt lat="42.21597" lon="-8.60795">
        <ele>138.57</ele>
        <time>2019-06-04T07:48:55Z</time>
      </trkpt>
      <trkpt lat="42.21618" lon="-8.60788">
        <ele>138.57</ele>
        <time>2019-06-04T07:49:11Z</time>
      </trkpt>
      <trkpt lat="42.21634" lon="-8.60783">
        <ele>138.57</ele>
        <time>2019-06-04T07:49:24Z</time>
      </trkpt>
      <trkpt lat="42.21656" lon="-8.60774">
        <ele>138.57</ele>
        <time>2019-06-04T07:49:42Z</time>
      </trkpt>
      <trkpt lat="42.2166" lon="-8.60773">
        <ele>138.57</ele>
        <time>2019-06-04T07:49:45Z</time>
      </trkpt>
      <trkpt lat="42.21674" lon="-8.60765">
        <ele>138.09</ele>
        <time>2019-06-04T07:50:00Z</time>
      </trkpt>
      <trkpt lat="42.21695" lon="-8.60759">
        <ele>137.61</ele>
        <time>2019-06-04T07:50:16Z</time>
      </trkpt>
      <trkpt lat="42.21714" lon="-8.60756">
        <ele>137.61</ele>
        <time>2019-06-04T07:50:30Z</time>
      </trkpt>
      <trkpt lat="42.21725" lon="-8.60752">
        <ele>139.05</ele>
        <time>2019-06-04T07:50:41Z</time>
      </trkpt>
      <trkpt lat="42.21743" lon="-8.60754">
        <ele>138.57</ele>
        <time>2019-06-04T07:50:55Z</time>
      </trkpt>
      <trkpt lat="42.21758" lon="-8.60751">
        <ele>140.01</ele>
        <time>2019-06-04T07:51:08Z</time>
      </trkpt>
      <trkpt lat="42.21762" lon="-8.60752">
        <ele>140.01</ele>
        <time>2019-06-04T07:51:11Z</time>
      </trkpt>
      <trkpt lat="42.21768" lon="-8.60752">
        <ele>140.49</ele>
        <time>2019-06-04T07:51:16Z</time>
      </trkpt>
      <trkpt lat="42.21789" lon="-8.60755">
        <ele>140.97</ele>
        <time>2019-06-04T07:51:33Z</time>
      </trkpt>
      <trkpt lat="42.21807" lon="-8.60756">
        <ele>142.41</ele>
        <time>2019-06-04T07:51:48Z</time>
      </trkpt>
      <trkpt lat="42.2182" lon="-8.60756">
        <ele>142.41</ele>
        <time>2019-06-04T07:52:02Z</time>
      </trkpt>
      <trkpt lat="42.21832" lon="-8.60753">
        <ele>142.41</ele>
        <time>2019-06-04T07:52:15Z</time>
      </trkpt>
      <trkpt lat="42.21851" lon="-8.60755">
        <ele>144.34</ele>
        <time>2019-06-04T07:52:30Z</time>
      </trkpt>
      <trkpt lat="42.21864" lon="-8.60759">
        <ele>144.34</ele>
        <time>2019-06-04T07:52:42Z</time>
      </trkpt>
      <trkpt lat="42.21877" lon="-8.60759">
        <ele>147.22</ele>
        <time>2019-06-04T07:52:54Z</time>
      </trkpt>
      <trkpt lat="42.21891" lon="-8.60759">
        <ele>147.22</ele>
        <time>2019-06-04T07:53:07Z</time>
      </trkpt>
      <trkpt lat="42.21904" lon="-8.60761">
        <ele>147.7</ele>
        <time>2019-06-04T07:53:20Z</time>
      </trkpt>
      <trkpt lat="42.21909" lon="-8.60762">
        <ele>148.66</ele>
        <time>2019-06-04T07:53:24Z</time>
      </trkpt>
      <trkpt lat="42.21923" lon="-8.60762">
        <ele>149.62</ele>
        <time>2019-06-04T07:53:37Z</time>
      </trkpt>
      <trkpt lat="42.21929" lon="-8.60763">
        <ele>149.62</ele>
        <time>2019-06-04T07:53:42Z</time>
      </trkpt>
      <trkpt lat="42.21944" lon="-8.60766">
        <ele>150.1</ele>
        <time>2019-06-04T07:53:58Z</time>
      </trkpt>
      <trkpt lat="42.2196" lon="-8.60765">
        <ele>151.54</ele>
        <time>2019-06-04T07:54:11Z</time>
      </trkpt>
      <trkpt lat="42.21976" lon="-8.60763">
        <ele>152.99</ele>
        <time>2019-06-04T07:54:26Z</time>
      </trkpt>
      <trkpt lat="42.21986" lon="-8.60764">
        <ele>153.95</ele>
        <time>2019-06-04T07:54:40Z</time>
      </trkpt>
      <trkpt lat="42.21999" lon="-8.60764">
        <ele>155.39</ele>
        <time>2019-06-04T07:54:52Z</time>
      </trkpt>
      <trkpt lat="42.22012" lon="-8.60764">
        <ele>155.87</ele>
        <time>2019-06-04T07:55:04Z</time>
      </trkpt>
      <trkpt lat="42.22028" lon="-8.60765">
        <ele>155.87</ele>
        <time>2019-06-04T07:55:17Z</time>
      </trkpt>
      <trkpt lat="42.22031" lon="-8.60765">
        <ele>156.35</ele>
        <time>2019-06-04T07:55:21Z</time>
      </trkpt>
      <trkpt lat="42.22045" lon="-8.60767">
        <ele>156.35</ele>
        <time>2019-06-04T07:55:35Z</time>
      </trkpt>
      <trkpt lat="42.22055" lon="-8.60771">
        <ele>157.31</ele>
        <time>2019-06-04T07:55:42Z</time>
      </trkpt>
      <trkpt lat="42.22069" lon="-8.60776">
        <ele>159.72</ele>
        <time>2019-06-04T07:55:50Z</time>
      </trkpt>
      <trkpt lat="42.22073" lon="-8.60778">
        <ele>160.2</ele>
        <time>2019-06-04T07:55:58Z</time>
      </trkpt>
      <trkpt lat="42.22084" lon="-8.60784">
        <ele>163.56</ele>
        <time>2019-06-04T07:56:14Z</time>
      </trkpt>
      <trkpt lat="42.22096" lon="-8.60789">
        <ele>165.48</ele>
        <time>2019-06-04T07:56:27Z</time>
      </trkpt>
      <trkpt lat="42.22098" lon="-8.6079">
        <ele>164.52</ele>
        <time>2019-06-04T07:56:29Z</time>
      </trkpt>
      <trkpt lat="42.22105" lon="-8.60793">
        <ele>167.89</ele>
        <time>2019-06-04T07:56:34Z</time>
      </trkpt>
      <trkpt lat="42.22107" lon="-8.60794">
        <ele>164.04</ele>
        <time>2019-06-04T07:56:36Z</time>
      </trkpt>
      <trkpt lat="42.22116" lon="-8.60797">
        <ele>167.41</ele>
        <time>2019-06-04T07:56:46Z</time>
      </trkpt>
      <trkpt lat="42.22117" lon="-8.60798">
        <ele>165.48</ele>
        <time>2019-06-04T07:56:48Z</time>
      </trkpt>
      <trkpt lat="42.22126" lon="-8.60801">
        <ele>166.45</ele>
        <time>2019-06-04T07:57:01Z</time>
      </trkpt>
      <trkpt lat="42.22139" lon="-8.60804">
        <ele>166.93</ele>
        <time>2019-06-04T07:57:26Z</time>
      </trkpt>
      <trkpt lat="42.22147" lon="-8.60809">
        <ele>166.45</ele>
        <time>2019-06-04T07:57:36Z</time>
      </trkpt>
      <trkpt lat="42.22159" lon="-8.60809">
        <ele>166.45</ele>
        <time>2019-06-04T07:57:47Z</time>
      </trkpt>
      <trkpt lat="42.2217" lon="-8.60807">
        <ele>167.41</ele>
        <time>2019-06-04T07:57:59Z</time>
      </trkpt>
      <trkpt lat="42.22176" lon="-8.60805">
        <ele>168.85</ele>
        <time>2019-06-04T07:58:10Z</time>
      </trkpt>
      <trkpt lat="42.22183" lon="-8.60806">
        <ele>167.89</ele>
        <time>2019-06-04T07:58:15Z</time>
      </trkpt>
      <trkpt lat="42.22193" lon="-8.60806">
        <ele>171.25</ele>
        <time>2019-06-04T07:58:21Z</time>
      </trkpt>
      <trkpt lat="42.22208" lon="-8.60808">
        <ele>172.21</ele>
        <time>2019-06-04T07:58:36Z</time>
      </trkpt>
      <trkpt lat="42.22209" lon="-8.60807">
        <ele>172.21</ele>
        <time>2019-06-04T07:58:37Z</time>
      </trkpt>
      <trkpt lat="42.22222" lon="-8.60808">
        <ele>171.25</ele>
        <time>2019-06-04T07:58:54Z</time>
      </trkpt>
      <trkpt lat="42.22223" lon="-8.60807">
        <ele>174.14</ele>
        <time>2019-06-04T07:58:56Z</time>
      </trkpt>
      <trkpt lat="42.22224" lon="-8.60807">
        <ele>171.25</ele>
        <time>2019-06-04T07:58:58Z</time>
      </trkpt>
      <trkpt lat="42.22225" lon="-8.60807">
        <ele>174.62</ele>
        <time>2019-06-04T07:59:00Z</time>
      </trkpt>
      <trkpt lat="42.22233" lon="-8.60807">
        <ele>176.06</ele>
        <time>2019-06-04T07:59:15Z</time>
      </trkpt>
      <trkpt lat="42.22247" lon="-8.60805">
        <ele>173.17</ele>
        <time>2019-06-04T07:59:31Z</time>
      </trkpt>
      <trkpt lat="42.22248" lon="-8.60804">
        <ele>177.5</ele>
        <time>2019-06-04T07:59:32Z</time>
      </trkpt>
      <trkpt lat="42.22261" lon="-8.60802">
        <ele>180.38</ele>
        <time>2019-06-04T07:59:41Z</time>
      </trkpt>
      <trkpt lat="42.22266" lon="-8.60798">
        <ele>177.5</ele>
        <time>2019-06-04T07:59:46Z</time>
      </trkpt>
      <trkpt lat="42.22268" lon="-8.60797">
        <ele>180.38</ele>
        <time>2019-06-04T07:59:48Z</time>
      </trkpt>
      <trkpt lat="42.22281" lon="-8.60787">
        <ele>181.35</ele>
        <time>2019-06-04T08:00:05Z</time>
      </trkpt>
      <trkpt lat="42.2229" lon="-8.60782">
        <ele>183.75</ele>
        <time>2019-06-04T08:00:17Z</time>
      </trkpt>
      <trkpt lat="42.22291" lon="-8.60781">
        <ele>179.9</ele>
        <time>2019-06-04T08:00:18Z</time>
      </trkpt>
      <trkpt lat="42.22292" lon="-8.60781">
        <ele>183.75</ele>
        <time>2019-06-04T08:00:19Z</time>
      </trkpt>
      <trkpt lat="42.223" lon="-8.60778">
        <ele>184.71</ele>
        <time>2019-06-04T08:00:24Z</time>
      </trkpt>
      <trkpt lat="42.22309" lon="-8.60765">
        <ele>186.15</ele>
        <time>2019-06-04T08:00:37Z</time>
      </trkpt>
      <trkpt lat="42.2231" lon="-8.60763">
        <ele>185.67</ele>
        <time>2019-06-04T08:00:38Z</time>
      </trkpt>
      <trkpt lat="42.22316" lon="-8.60748">
        <ele>187.11</ele>
        <time>2019-06-04T08:00:52Z</time>
      </trkpt>
      <trkpt lat="42.22322" lon="-8.60743">
        <ele>188.08</ele>
        <time>2019-06-04T08:00:59Z</time>
      </trkpt>
      <trkpt lat="42.22334" lon="-8.60732">
        <ele>189.04</ele>
        <time>2019-06-04T08:01:14Z</time>
      </trkpt>
      <trkpt lat="42.22335" lon="-8.60732">
        <ele>189.04</ele>
        <time>2019-06-04T08:01:15Z</time>
      </trkpt>
      <trkpt lat="42.22344" lon="-8.60726">
        <ele>190</ele>
        <time>2019-06-04T08:01:27Z</time>
      </trkpt>
      <trkpt lat="42.2236" lon="-8.60722">
        <ele>190.96</ele>
        <time>2019-06-04T08:01:38Z</time>
      </trkpt>
      <trkpt lat="42.22371" lon="-8.60716">
        <ele>192.4</ele>
        <time>2019-06-04T08:01:52Z</time>
      </trkpt>
      <trkpt lat="42.22383" lon="-8.60705">
        <ele>194.8</ele>
        <time>2019-06-04T08:02:08Z</time>
      </trkpt>
      <trkpt lat="42.22396" lon="-8.60694">
        <ele>194.8</ele>
        <time>2019-06-04T08:02:21Z</time>
      </trkpt>
      <trkpt lat="42.22401" lon="-8.60693">
        <ele>196.25</ele>
        <time>2019-06-04T08:02:35Z</time>
      </trkpt>
      <trkpt lat="42.22398" lon="-8.60689">
        <ele>195.77</ele>
        <time>2019-06-04T08:02:52Z</time>
      </trkpt>
      <trkpt lat="42.22395" lon="-8.60688">
        <ele>196.25</ele>
        <time>2019-06-04T08:03:10Z</time>
      </trkpt>
      <trkpt lat="42.22395" lon="-8.60683">
        <ele>195.28</ele>
        <time>2019-06-04T08:03:23Z</time>
      </trkpt>
      <trkpt lat="42.22396" lon="-8.60681">
        <ele>195.28</ele>
        <time>2019-06-04T08:03:42Z</time>
      </trkpt>
      <trkpt lat="42.22396" lon="-8.6068">
        <ele>195.77</ele>
        <time>2019-06-04T08:04:04Z</time>
      </trkpt>
      <trkpt lat="42.22397" lon="-8.60682">
        <ele>196.25</ele>
        <time>2019-06-04T08:04:18Z</time>
      </trkpt>
      <trkpt lat="42.22397" lon="-8.60682">
        <ele>195.77</ele>
        <time>2019-06-04T08:04:27Z</time>
      </trkpt>
      <trkpt lat="42.22396" lon="-8.60683">
        <ele>195.28</ele>
        <time>2019-06-04T08:04:42Z</time>
      </trkpt>
      <trkpt lat="42.22396" lon="-8.60682">
        <ele>195.28</ele>
        <time>2019-06-04T08:04:45Z</time>
      </trkpt>
      <trkpt lat="42.22397" lon="-8.6068">
        <ele>178.94</ele>
        <time>2019-06-04T08:04:47Z</time>
      </trkpt>
      <trkpt lat="42.22397" lon="-8.60679">
        <ele>194.8</ele>
        <time>2019-06-04T08:04:48Z</time>
      </trkpt>
      <trkpt lat="42.224" lon="-8.60679">
        <ele>194.8</ele>
        <time>2019-06-04T08:05:14Z</time>
      </trkpt>
      <trkpt lat="42.22399" lon="-8.60683">
        <ele>195.28</ele>
        <time>2019-06-04T08:05:49Z</time>
      </trkpt>
      <trkpt lat="42.22401" lon="-8.60679">
        <ele>195.28</ele>
        <time>2019-06-04T08:06:29Z</time>
      </trkpt>
      <trkpt lat="42.22401" lon="-8.60677">
        <ele>195.28</ele>
        <time>2019-06-04T08:07:07Z</time>
      </trkpt>
      <trkpt lat="42.22402" lon="-8.60688">
        <ele>195.28</ele>
        <time>2019-06-04T08:07:42Z</time>
      </trkpt>
      <trkpt lat="42.224" lon="-8.6068">
        <ele>195.77</ele>
        <time>2019-06-04T08:08:17Z</time>
      </trkpt>
      <trkpt lat="42.22399" lon="-8.60681">
        <ele>196.25</ele>
        <time>2019-06-04T08:08:51Z</time>
      </trkpt>
      <trkpt lat="42.22397" lon="-8.60673">
        <ele>196.25</ele>
        <time>2019-06-04T08:09:28Z</time>
      </trkpt>
      <trkpt lat="42.22401" lon="-8.60678">
        <ele>196.25</ele>
        <time>2019-06-04T08:10:11Z</time>
      </trkpt>
      <trkpt lat="42.22398" lon="-8.60671">
        <ele>196.73</ele>
        <time>2019-06-04T08:10:53Z</time>
      </trkpt>
      <trkpt lat="42.22399" lon="-8.60676">
        <ele>197.21</ele>
        <time>2019-06-04T08:11:32Z</time>
      </trkpt>
      <trkpt lat="42.224" lon="-8.60678">
        <ele>197.21</ele>
        <time>2019-06-04T08:12:10Z</time>
      </trkpt>
      <trkpt lat="42.22399" lon="-8.60685">
        <ele>197.21</ele>
        <time>2019-06-04T08:12:53Z</time>
      </trkpt>
      <trkpt lat="42.22399" lon="-8.60685">
        <ele>197.69</ele>
        <time>2019-06-04T08:13:26Z</time>
      </trkpt>
      <trkpt lat="42.22398" lon="-8.60685">
        <ele>197.21</ele>
        <time>2019-06-04T08:14:06Z</time>
      </trkpt>
      <trkpt lat="42.22401" lon="-8.60684">
        <ele>198.17</ele>
        <time>2019-06-04T08:14:44Z</time>
      </trkpt>
      <trkpt lat="42.22397" lon="-8.60681">
        <ele>198.17</ele>
        <time>2019-06-04T08:15:23Z</time>
      </trkpt>
      <trkpt lat="42.22403" lon="-8.60678">
        <ele>198.17</ele>
        <time>2019-06-04T08:16:05Z</time>
      </trkpt>
      <trkpt lat="42.22398" lon="-8.60678">
        <ele>198.65</ele>
        <time>2019-06-04T08:16:42Z</time>
      </trkpt>
      <trkpt lat="42.22399" lon="-8.60681">
        <ele>198.65</ele>
        <time>2019-06-04T08:17:15Z</time>
      </trkpt>
      <trkpt lat="42.22398" lon="-8.60675">
        <ele>198.17</ele>
        <time>2019-06-04T08:17:47Z</time>
      </trkpt>
      <trkpt lat="42.224" lon="-8.60682">
        <ele>198.65</ele>
        <time>2019-06-04T08:18:29Z</time>
      </trkpt>
      <trkpt lat="42.22403" lon="-8.60677">
        <ele>198.65</ele>
        <time>2019-06-04T08:19:07Z</time>
      </trkpt>
      <trkpt lat="42.22401" lon="-8.60676">
        <ele>198.17</ele>
        <time>2019-06-04T08:19:47Z</time>
      </trkpt>
      <trkpt lat="42.224" lon="-8.60677">
        <ele>194.8</ele>
        <time>2019-06-04T08:19:59Z</time>
      </trkpt>
      <trkpt lat="42.224" lon="-8.60678">
        <ele>199.13</ele>
        <time>2019-06-04T08:20:00Z</time>
      </trkpt>
      <trkpt lat="42.22396" lon="-8.60673">
        <ele>204.42</ele>
        <time>2019-06-04T08:20:19Z</time>
      </trkpt>
      <trkpt lat="42.22396" lon="-8.60672">
        <ele>198.65</ele>
        <time>2019-06-04T08:20:20Z</time>
      </trkpt>
      <trkpt lat="42.22396" lon="-8.60675">
        <ele>198.17</ele>
        <time>2019-06-04T08:20:36Z</time>
      </trkpt>
      <trkpt lat="42.22398" lon="-8.60679">
        <ele>199.13</ele>
        <time>2019-06-04T08:20:54Z</time>
      </trkpt>
      <trkpt lat="42.22398" lon="-8.60679">
        <ele>195.77</ele>
        <time>2019-06-04T08:20:57Z</time>
      </trkpt>
      <trkpt lat="42.22398" lon="-8.60679">
        <ele>199.13</ele>
        <time>2019-06-04T08:20:58Z</time>
      </trkpt>
      <trkpt lat="42.22397" lon="-8.60681">
        <ele>195.77</ele>
        <time>2019-06-04T08:21:19Z</time>
      </trkpt>
      <trkpt lat="42.22397" lon="-8.60681">
        <ele>199.61</ele>
        <time>2019-06-04T08:21:20Z</time>
      </trkpt>
      <trkpt lat="42.22398" lon="-8.60679">
        <ele>199.61</ele>
        <time>2019-06-04T08:21:33Z</time>
      </trkpt>
      <trkpt lat="42.22396" lon="-8.60679">
        <ele>199.13</ele>
        <time>2019-06-04T08:21:48Z</time>
      </trkpt>
      <trkpt lat="42.22395" lon="-8.60685">
        <ele>199.61</ele>
        <time>2019-06-04T08:22:08Z</time>
      </trkpt>
      <trkpt lat="42.22401" lon="-8.60686">
        <ele>199.13</ele>
        <time>2019-06-04T08:22:26Z</time>
      </trkpt>
      <trkpt lat="42.22408" lon="-8.60686">
        <ele>200.09</ele>
        <time>2019-06-04T08:22:39Z</time>
      </trkpt>
      <trkpt lat="42.22411" lon="-8.60686">
        <ele>200.57</ele>
        <time>2019-06-04T08:22:44Z</time>
      </trkpt>
      <trkpt lat="42.22418" lon="-8.60682">
        <ele>200.57</ele>
        <time>2019-06-04T08:22:51Z</time>
      </trkpt>
      <trkpt lat="42.22422" lon="-8.60678">
        <ele>201.05</ele>
        <time>2019-06-04T08:22:55Z</time>
      </trkpt>
      <trkpt lat="42.22432" lon="-8.60673">
        <ele>201.53</ele>
        <time>2019-06-04T08:23:04Z</time>
      </trkpt>
      <trkpt lat="42.22448" lon="-8.60663">
        <ele>201.53</ele>
        <time>2019-06-04T08:23:19Z</time>
      </trkpt>
      <trkpt lat="42.22451" lon="-8.60662">
        <ele>201.53</ele>
        <time>2019-06-04T08:23:23Z</time>
      </trkpt>
      <trkpt lat="42.22453" lon="-8.6066">
        <ele>202.01</ele>
        <time>2019-06-04T08:23:25Z</time>
      </trkpt>
      <trkpt lat="42.22466" lon="-8.60656">
        <ele>202.49</ele>
        <time>2019-06-04T08:23:40Z</time>
      </trkpt>
      <trkpt lat="42.2249" lon="-8.60641">
        <ele>202.01</ele>
        <time>2019-06-04T08:23:58Z</time>
      </trkpt>
      <trkpt lat="42.22502" lon="-8.60629">
        <ele>202.49</ele>
        <time>2019-06-04T08:24:10Z</time>
      </trkpt>
      <trkpt lat="42.22509" lon="-8.60624">
        <ele>201.53</ele>
        <time>2019-06-04T08:24:18Z</time>
      </trkpt>
      <trkpt lat="42.22525" lon="-8.60611">
        <ele>201.05</ele>
        <time>2019-06-04T08:24:35Z</time>
      </trkpt>
      <trkpt lat="42.2254" lon="-8.60605">
        <ele>200.09</ele>
        <time>2019-06-04T08:24:48Z</time>
      </trkpt>
      <trkpt lat="42.22561" lon="-8.60601">
        <ele>200.09</ele>
        <time>2019-06-04T08:25:05Z</time>
      </trkpt>
      <trkpt lat="42.22565" lon="-8.60599">
        <ele>202.98</ele>
        <time>2019-06-04T08:25:10Z</time>
      </trkpt>
      <trkpt lat="42.22567" lon="-8.60598">
        <ele>200.09</ele>
        <time>2019-06-04T08:25:12Z</time>
      </trkpt>
      <trkpt lat="42.22568" lon="-8.60598">
        <ele>200.09</ele>
        <time>2019-06-04T08:25:13Z</time>
      </trkpt>
      <trkpt lat="42.22569" lon="-8.60598">
        <ele>200.09</ele>
        <time>2019-06-04T08:25:14Z</time>
      </trkpt>
      <trkpt lat="42.22577" lon="-8.60598">
        <ele>199.13</ele>
        <time>2019-06-04T08:25:20Z</time>
      </trkpt>
      <trkpt lat="42.22581" lon="-8.60596">
        <ele>200.09</ele>
        <time>2019-06-04T08:25:33Z</time>
      </trkpt>
      <trkpt lat="42.22583" lon="-8.60594">
        <ele>199.61</ele>
        <time>2019-06-04T08:25:38Z</time>
      </trkpt>
      <trkpt lat="42.22589" lon="-8.60597">
        <ele>199.61</ele>
        <time>2019-06-04T08:25:43Z</time>
      </trkpt>
      <trkpt lat="42.22594" lon="-8.60602">
        <ele>199.61</ele>
        <time>2019-06-04T08:25:49Z</time>
      </trkpt>
      <trkpt lat="42.22612" lon="-8.60611">
        <ele>200.57</ele>
        <time>2019-06-04T08:26:04Z</time>
      </trkpt>
      <trkpt lat="42.2262" lon="-8.60619">
        <ele>200.57</ele>
        <time>2019-06-04T08:26:13Z</time>
      </trkpt>
      <trkpt lat="42.22624" lon="-8.60622">
        <ele>200.57</ele>
        <time>2019-06-04T08:26:17Z</time>
      </trkpt>
      <trkpt lat="42.22629" lon="-8.60626">
        <ele>200.09</ele>
        <time>2019-06-04T08:26:22Z</time>
      </trkpt>
      <trkpt lat="42.22631" lon="-8.60628">
        <ele>200.57</ele>
        <time>2019-06-04T08:26:24Z</time>
      </trkpt>
      <trkpt lat="42.22635" lon="-8.60632">
        <ele>200.57</ele>
        <time>2019-06-04T08:26:28Z</time>
      </trkpt>
      <trkpt lat="42.22645" lon="-8.60646">
        <ele>200.57</ele>
        <time>2019-06-04T08:26:40Z</time>
      </trkpt>
      <trkpt lat="42.22658" lon="-8.60658">
        <ele>201.53</ele>
        <time>2019-06-04T08:26:54Z</time>
      </trkpt>
      <trkpt lat="42.22666" lon="-8.60665">
        <ele>202.01</ele>
        <time>2019-06-04T08:27:05Z</time>
      </trkpt>
      <trkpt lat="42.22676" lon="-8.6067">
        <ele>202.01</ele>
        <time>2019-06-04T08:27:16Z</time>
      </trkpt>
      <trkpt lat="42.22681" lon="-8.60673">
        <ele>202.49</ele>
        <time>2019-06-04T08:27:21Z</time>
      </trkpt>
      <trkpt lat="42.22689" lon="-8.60679">
        <ele>204.42</ele>
        <time>2019-06-04T08:27:29Z</time>
      </trkpt>
      <trkpt lat="42.22699" lon="-8.60683">
        <ele>205.86</ele>
        <time>2019-06-04T08:27:37Z</time>
      </trkpt>
      <trkpt lat="42.22707" lon="-8.60686">
        <ele>204.9</ele>
        <time>2019-06-04T08:27:44Z</time>
      </trkpt>
      <trkpt lat="42.2271" lon="-8.60688">
        <ele>206.34</ele>
        <time>2019-06-04T08:27:47Z</time>
      </trkpt>
      <trkpt lat="42.22719" lon="-8.60696">
        <ele>206.82</ele>
        <time>2019-06-04T08:27:59Z</time>
      </trkpt>
      <trkpt lat="42.22732" lon="-8.60701">
        <ele>208.26</ele>
        <time>2019-06-04T08:28:12Z</time>
      </trkpt>
      <trkpt lat="42.22734" lon="-8.60703">
        <ele>209.22</ele>
        <time>2019-06-04T08:28:14Z</time>
      </trkpt>
      <trkpt lat="42.22741" lon="-8.60719">
        <ele>210.67</ele>
        <time>2019-06-04T08:28:30Z</time>
      </trkpt>
      <trkpt lat="42.22745" lon="-8.6073">
        <ele>213.55</ele>
        <time>2019-06-04T08:28:44Z</time>
      </trkpt>
      <trkpt lat="42.22748" lon="-8.60738">
        <ele>215.47</ele>
        <time>2019-06-04T08:28:57Z</time>
      </trkpt>
      <trkpt lat="42.22753" lon="-8.60748">
        <ele>215.47</ele>
        <time>2019-06-04T08:29:13Z</time>
      </trkpt>
      <trkpt lat="42.22754" lon="-8.60753">
        <ele>219.32</ele>
        <time>2019-06-04T08:29:20Z</time>
      </trkpt>
      <trkpt lat="42.22757" lon="-8.60766">
        <ele>221.72</ele>
        <time>2019-06-04T08:29:36Z</time>
      </trkpt>
      <trkpt lat="42.22757" lon="-8.60767">
        <ele>218.36</ele>
        <time>2019-06-04T08:29:37Z</time>
      </trkpt>
      <trkpt lat="42.22758" lon="-8.60769">
        <ele>221.72</ele>
        <time>2019-06-04T08:29:41Z</time>
      </trkpt>
      <trkpt lat="42.22763" lon="-8.60779">
        <ele>223.16</ele>
        <time>2019-06-04T08:29:56Z</time>
      </trkpt>
      <trkpt lat="42.22769" lon="-8.60791">
        <ele>225.09</ele>
        <time>2019-06-04T08:30:12Z</time>
      </trkpt>
      <trkpt lat="42.2277" lon="-8.60798">
        <ele>225.57</ele>
        <time>2019-06-04T08:30:33Z</time>
      </trkpt>
      <trkpt lat="42.22777" lon="-8.60806">
        <ele>225.57</ele>
        <time>2019-06-04T08:30:53Z</time>
      </trkpt>
      <trkpt lat="42.22784" lon="-8.60818">
        <ele>226.05</ele>
        <time>2019-06-04T08:31:06Z</time>
      </trkpt>
      <trkpt lat="42.2279" lon="-8.60824">
        <ele>226.05</ele>
        <time>2019-06-04T08:31:13Z</time>
      </trkpt>
      <trkpt lat="42.22796" lon="-8.60837">
        <ele>226.05</ele>
        <time>2019-06-04T08:31:25Z</time>
      </trkpt>
      <trkpt lat="42.22801" lon="-8.60855">
        <ele>225.57</ele>
        <time>2019-06-04T08:31:37Z</time>
      </trkpt>
      <trkpt lat="42.22809" lon="-8.60873">
        <ele>226.05</ele>
        <time>2019-06-04T08:31:52Z</time>
      </trkpt>
      <trkpt lat="42.22815" lon="-8.60893">
        <ele>225.57</ele>
        <time>2019-06-04T08:32:06Z</time>
      </trkpt>
      <trkpt lat="42.22819" lon="-8.60914">
        <ele>224.61</ele>
        <time>2019-06-04T08:32:18Z</time>
      </trkpt>
      <trkpt lat="42.22828" lon="-8.60929">
        <ele>226.05</ele>
        <time>2019-06-04T08:32:30Z</time>
      </trkpt>
      <trkpt lat="42.2283" lon="-8.60941">
        <ele>226.05</ele>
        <time>2019-06-04T08:32:38Z</time>
      </trkpt>
      <trkpt lat="42.22844" lon="-8.60965">
        <ele>226.05</ele>
        <time>2019-06-04T08:32:56Z</time>
      </trkpt>
      <trkpt lat="42.22851" lon="-8.60973">
        <ele>225.57</ele>
        <time>2019-06-04T08:33:06Z</time>
      </trkpt>
      <trkpt lat="42.2286" lon="-8.60986">
        <ele>226.05</ele>
        <time>2019-06-04T08:33:18Z</time>
      </trkpt>
      <trkpt lat="42.22865" lon="-8.60995">
        <ele>225.57</ele>
        <time>2019-06-04T08:33:27Z</time>
      </trkpt>
      <trkpt lat="42.22875" lon="-8.61016">
        <ele>226.05</ele>
        <time>2019-06-04T08:33:42Z</time>
      </trkpt>
      <trkpt lat="42.22879" lon="-8.6102">
        <ele>226.53</ele>
        <time>2019-06-04T08:33:48Z</time>
      </trkpt>
      <trkpt lat="42.22882" lon="-8.6103">
        <ele>225.57</ele>
        <time>2019-06-04T08:33:55Z</time>
      </trkpt>
      <trkpt lat="42.22883" lon="-8.61047">
        <ele>225.57</ele>
        <time>2019-06-04T08:34:11Z</time>
      </trkpt>
      <trkpt lat="42.22888" lon="-8.61049">
        <ele>226.05</ele>
        <time>2019-06-04T08:34:30Z</time>
      </trkpt>
      <trkpt lat="42.22893" lon="-8.61056">
        <ele>226.05</ele>
        <time>2019-06-04T08:34:46Z</time>
      </trkpt>
      <trkpt lat="42.22893" lon="-8.61054">
        <ele>226.05</ele>
        <time>2019-06-04T08:35:12Z</time>
      </trkpt>
      <trkpt lat="42.229" lon="-8.61058">
        <ele>225.57</ele>
        <time>2019-06-04T08:35:24Z</time>
      </trkpt>
      <trkpt lat="42.2291" lon="-8.61069">
        <ele>226.53</ele>
        <time>2019-06-04T08:35:38Z</time>
      </trkpt>
      <trkpt lat="42.22912" lon="-8.61072">
        <ele>226.53</ele>
        <time>2019-06-04T08:35:41Z</time>
      </trkpt>
      <trkpt lat="42.22921" lon="-8.61084">
        <ele>227.01</ele>
        <time>2019-06-04T08:35:52Z</time>
      </trkpt>
      <trkpt lat="42.22929" lon="-8.61088">
        <ele>227.01</ele>
        <time>2019-06-04T08:35:57Z</time>
      </trkpt>
      <trkpt lat="42.22942" lon="-8.61097">
        <ele>226.05</ele>
        <time>2019-06-04T08:36:10Z</time>
      </trkpt>
      <trkpt lat="42.22952" lon="-8.61097">
        <ele>225.57</ele>
        <time>2019-06-04T08:36:23Z</time>
      </trkpt>
      <trkpt lat="42.22952" lon="-8.61096">
        <ele>225.09</ele>
        <time>2019-06-04T08:36:24Z</time>
      </trkpt>
      <trkpt lat="42.22966" lon="-8.61096">
        <ele>223.64</ele>
        <time>2019-06-04T08:36:36Z</time>
      </trkpt>
      <trkpt lat="42.22976" lon="-8.611">
        <ele>223.64</ele>
        <time>2019-06-04T08:36:44Z</time>
      </trkpt>
      <trkpt lat="42.22995" lon="-8.6111">
        <ele>224.12</ele>
        <time>2019-06-04T08:36:58Z</time>
      </trkpt>
      <trkpt lat="42.23003" lon="-8.61113">
        <ele>224.61</ele>
        <time>2019-06-04T08:37:01Z</time>
      </trkpt>
      <trkpt lat="42.23015" lon="-8.61119">
        <ele>224.12</ele>
        <time>2019-06-04T08:37:11Z</time>
      </trkpt>
      <trkpt lat="42.23023" lon="-8.61134">
        <ele>224.61</ele>
        <time>2019-06-04T08:37:25Z</time>
      </trkpt>
      <trkpt lat="42.23035" lon="-8.6115">
        <ele>224.61</ele>
        <time>2019-06-04T08:37:40Z</time>
      </trkpt>
      <trkpt lat="42.23042" lon="-8.61154">
        <ele>224.61</ele>
        <time>2019-06-04T08:37:52Z</time>
      </trkpt>
      <trkpt lat="42.2305" lon="-8.61155">
        <ele>224.12</ele>
        <time>2019-06-04T08:38:00Z</time>
      </trkpt>
      <trkpt lat="42.23058" lon="-8.61159">
        <ele>223.64</ele>
        <time>2019-06-04T08:38:12Z</time>
      </trkpt>
      <trkpt lat="42.23063" lon="-8.61163">
        <ele>224.12</ele>
        <time>2019-06-04T08:38:33Z</time>
      </trkpt>
      <trkpt lat="42.2307" lon="-8.6117">
        <ele>223.16</ele>
        <time>2019-06-04T08:38:43Z</time>
      </trkpt>
      <trkpt lat="42.23078" lon="-8.61176">
        <ele>222.68</ele>
        <time>2019-06-04T08:38:51Z</time>
      </trkpt>
      <trkpt lat="42.23093" lon="-8.61185">
        <ele>221.72</ele>
        <time>2019-06-04T08:39:04Z</time>
      </trkpt>
      <trkpt lat="42.23105" lon="-8.61196">
        <ele>221.72</ele>
        <time>2019-06-04T08:39:17Z</time>
      </trkpt>
      <trkpt lat="42.23116" lon="-8.61208">
        <ele>222.68</ele>
        <time>2019-06-04T08:39:30Z</time>
      </trkpt>
      <trkpt lat="42.23127" lon="-8.61218">
        <ele>220.76</ele>
        <time>2019-06-04T08:39:42Z</time>
      </trkpt>
      <trkpt lat="42.23133" lon="-8.61227">
        <ele>220.76</ele>
        <time>2019-06-04T08:39:48Z</time>
      </trkpt>
      <trkpt lat="42.23141" lon="-8.61236">
        <ele>219.8</ele>
        <time>2019-06-04T08:39:55Z</time>
      </trkpt>
      <trkpt lat="42.23148" lon="-8.61239">
        <ele>217.88</ele>
        <time>2019-06-04T08:40:01Z</time>
      </trkpt>
      <trkpt lat="42.23153" lon="-8.61242">
        <ele>218.36</ele>
        <time>2019-06-04T08:40:09Z</time>
      </trkpt>
      <trkpt lat="42.23165" lon="-8.61236">
        <ele>216.43</ele>
        <time>2019-06-04T08:40:21Z</time>
      </trkpt>
      <trkpt lat="42.23171" lon="-8.61233">
        <ele>216.43</ele>
        <time>2019-06-04T08:40:26Z</time>
      </trkpt>
      <trkpt lat="42.23196" lon="-8.61236">
        <ele>215.95</ele>
        <time>2019-06-04T08:40:42Z</time>
      </trkpt>
      <trkpt lat="42.23206" lon="-8.61238">
        <ele>215.95</ele>
        <time>2019-06-04T08:40:56Z</time>
      </trkpt>
      <trkpt lat="42.23215" lon="-8.61243">
        <ele>214.51</ele>
        <time>2019-06-04T08:41:12Z</time>
      </trkpt>
      <trkpt lat="42.23235" lon="-8.61251">
        <ele>214.03</ele>
        <time>2019-06-04T08:41:26Z</time>
      </trkpt>
      <trkpt lat="42.23257" lon="-8.61254">
        <ele>212.59</ele>
        <time>2019-06-04T08:41:42Z</time>
      </trkpt>
      <trkpt lat="42.23279" lon="-8.61263">
        <ele>211.63</ele>
        <time>2019-06-04T08:42:00Z</time>
      </trkpt>
      <trkpt lat="42.23297" lon="-8.61269">
        <ele>208.74</ele>
        <time>2019-06-04T08:42:16Z</time>
      </trkpt>
      <trkpt lat="42.23315" lon="-8.61274">
        <ele>208.74</ele>
        <time>2019-06-04T08:42:30Z</time>
      </trkpt>
      <trkpt lat="42.23323" lon="-8.61277">
        <ele>208.26</ele>
        <time>2019-06-04T08:42:36Z</time>
      </trkpt>
      <trkpt lat="42.2334" lon="-8.61277">
        <ele>207.78</ele>
        <time>2019-06-04T08:42:50Z</time>
      </trkpt>
      <trkpt lat="42.23347" lon="-8.61281">
        <ele>207.3</ele>
        <time>2019-06-04T08:43:02Z</time>
      </trkpt>
      <trkpt lat="42.23359" lon="-8.61283">
        <ele>206.82</ele>
        <time>2019-06-04T08:43:15Z</time>
      </trkpt>
      <trkpt lat="42.23375" lon="-8.61288">
        <ele>205.86</ele>
        <time>2019-06-04T08:43:27Z</time>
      </trkpt>
      <trkpt lat="42.23394" lon="-8.61298">
        <ele>206.34</ele>
        <time>2019-06-04T08:43:41Z</time>
      </trkpt>
      <trkpt lat="42.23407" lon="-8.61307">
        <ele>204.9</ele>
        <time>2019-06-04T08:43:53Z</time>
      </trkpt>
      <trkpt lat="42.23421" lon="-8.61314">
        <ele>205.38</ele>
        <time>2019-06-04T08:44:05Z</time>
      </trkpt>
      <trkpt lat="42.23436" lon="-8.61323">
        <ele>204.42</ele>
        <time>2019-06-04T08:44:18Z</time>
      </trkpt>
      <trkpt lat="42.23438" lon="-8.61325">
        <ele>203.94</ele>
        <time>2019-06-04T08:44:21Z</time>
      </trkpt>
      <trkpt lat="42.2344" lon="-8.61326">
        <ele>203.94</ele>
        <time>2019-06-04T08:44:23Z</time>
      </trkpt>
      <trkpt lat="42.23459" lon="-8.61333">
        <ele>204.42</ele>
        <time>2019-06-04T08:44:37Z</time>
      </trkpt>
      <trkpt lat="42.23469" lon="-8.61338">
        <ele>203.46</ele>
        <time>2019-06-04T08:44:49Z</time>
      </trkpt>
      <trkpt lat="42.2348" lon="-8.61344">
        <ele>203.94</ele>
        <time>2019-06-04T08:44:59Z</time>
      </trkpt>
      <trkpt lat="42.23493" lon="-8.61354">
        <ele>203.46</ele>
        <time>2019-06-04T08:45:12Z</time>
      </trkpt>
      <trkpt lat="42.23512" lon="-8.6136">
        <ele>202.01</ele>
        <time>2019-06-04T08:45:27Z</time>
      </trkpt>
      <trkpt lat="42.23527" lon="-8.6136">
        <ele>202.98</ele>
        <time>2019-06-04T08:45:38Z</time>
      </trkpt>
      <trkpt lat="42.23545" lon="-8.61362">
        <ele>201.53</ele>
        <time>2019-06-04T08:45:51Z</time>
      </trkpt>
      <trkpt lat="42.23565" lon="-8.61357">
        <ele>200.57</ele>
        <time>2019-06-04T08:46:07Z</time>
      </trkpt>
      <trkpt lat="42.23579" lon="-8.61355">
        <ele>200.09</ele>
        <time>2019-06-04T08:46:18Z</time>
      </trkpt>
      <trkpt lat="42.23596" lon="-8.61353">
        <ele>199.13</ele>
        <time>2019-06-04T08:46:31Z</time>
      </trkpt>
      <trkpt lat="42.23611" lon="-8.61351">
        <ele>198.17</ele>
        <time>2019-06-04T08:46:44Z</time>
      </trkpt>
      <trkpt lat="42.23627" lon="-8.61347">
        <ele>197.69</ele>
        <time>2019-06-04T08:46:57Z</time>
      </trkpt>
      <trkpt lat="42.23638" lon="-8.61343">
        <ele>197.69</ele>
        <time>2019-06-04T08:47:09Z</time>
      </trkpt>
      <trkpt lat="42.23649" lon="-8.6134">
        <ele>198.17</ele>
        <time>2019-06-04T08:47:21Z</time>
      </trkpt>
      <trkpt lat="42.23656" lon="-8.6134">
        <ele>198.17</ele>
        <time>2019-06-04T08:47:25Z</time>
      </trkpt>
      <trkpt lat="42.23657" lon="-8.6134">
        <ele>197.69</ele>
        <time>2019-06-04T08:47:27Z</time>
      </trkpt>
      <trkpt lat="42.23662" lon="-8.6134">
        <ele>198.17</ele>
        <time>2019-06-04T08:47:31Z</time>
      </trkpt>
      <trkpt lat="42.23671" lon="-8.61336">
        <ele>198.65</ele>
        <time>2019-06-04T08:47:45Z</time>
      </trkpt>
      <trkpt lat="42.23671" lon="-8.61337">
        <ele>198.65</ele>
        <time>2019-06-04T08:47:48Z</time>
      </trkpt>
      <trkpt lat="42.23673" lon="-8.61338">
        <ele>197.69</ele>
        <time>2019-06-04T08:47:50Z</time>
      </trkpt>
      <trkpt lat="42.23689" lon="-8.61337">
        <ele>197.69</ele>
        <time>2019-06-04T08:48:04Z</time>
      </trkpt>
      <trkpt lat="42.23706" lon="-8.61332">
        <ele>197.21</ele>
        <time>2019-06-04T08:48:19Z</time>
      </trkpt>
      <trkpt lat="42.23713" lon="-8.61329">
        <ele>197.69</ele>
        <time>2019-06-04T08:48:25Z</time>
      </trkpt>
      <trkpt lat="42.23732" lon="-8.61323">
        <ele>197.21</ele>
        <time>2019-06-04T08:48:41Z</time>
      </trkpt>
      <trkpt lat="42.23747" lon="-8.6132">
        <ele>197.69</ele>
        <time>2019-06-04T08:48:53Z</time>
      </trkpt>
      <trkpt lat="42.23751" lon="-8.61319">
        <ele>197.21</ele>
        <time>2019-06-04T08:48:57Z</time>
      </trkpt>
      <trkpt lat="42.23762" lon="-8.61316">
        <ele>197.69</ele>
        <time>2019-06-04T08:49:06Z</time>
      </trkpt>
      <trkpt lat="42.2378" lon="-8.61314">
        <ele>197.69</ele>
        <time>2019-06-04T08:49:20Z</time>
      </trkpt>
      <trkpt lat="42.23781" lon="-8.61314">
        <ele>196.25</ele>
        <time>2019-06-04T08:49:21Z</time>
      </trkpt>
      <trkpt lat="42.23794" lon="-8.61308">
        <ele>196.73</ele>
        <time>2019-06-04T08:49:32Z</time>
      </trkpt>
      <trkpt lat="42.23799" lon="-8.61306">
        <ele>196.73</ele>
        <time>2019-06-04T08:49:40Z</time>
      </trkpt>
      <trkpt lat="42.23816" lon="-8.61303">
        <ele>196.25</ele>
        <time>2019-06-04T08:49:53Z</time>
      </trkpt>
      <trkpt lat="42.2384" lon="-8.61299">
        <ele>195.28</ele>
        <time>2019-06-04T08:50:09Z</time>
      </trkpt>
      <trkpt lat="42.23859" lon="-8.61294">
        <ele>195.28</ele>
        <time>2019-06-04T08:50:23Z</time>
      </trkpt>
      <trkpt lat="42.23865" lon="-8.61291">
        <ele>195.28</ele>
        <time>2019-06-04T08:50:30Z</time>
      </trkpt>
      <trkpt lat="42.23867" lon="-8.6129">
        <ele>195.28</ele>
        <time>2019-06-04T08:50:32Z</time>
      </trkpt>
      <trkpt lat="42.23882" lon="-8.61281">
        <ele>194.32</ele>
        <time>2019-06-04T08:50:46Z</time>
      </trkpt>
      <trkpt lat="42.2389" lon="-8.61277">
        <ele>193.84</ele>
        <time>2019-06-04T08:50:52Z</time>
      </trkpt>
      <trkpt lat="42.23898" lon="-8.6127">
        <ele>194.32</ele>
        <time>2019-06-04T08:51:05Z</time>
      </trkpt>
      <trkpt lat="42.23919" lon="-8.61265">
        <ele>193.84</ele>
        <time>2019-06-04T08:51:17Z</time>
      </trkpt>
      <trkpt lat="42.23929" lon="-8.61258">
        <ele>193.36</ele>
        <time>2019-06-04T08:51:26Z</time>
      </trkpt>
      <trkpt lat="42.23945" lon="-8.61246">
        <ele>192.88</ele>
        <time>2019-06-04T08:51:39Z</time>
      </trkpt>
      <trkpt lat="42.23955" lon="-8.6124">
        <ele>192.4</ele>
        <time>2019-06-04T08:51:47Z</time>
      </trkpt>
      <trkpt lat="42.23967" lon="-8.61234">
        <ele>191.92</ele>
        <time>2019-06-04T08:51:57Z</time>
      </trkpt>
      <trkpt lat="42.23973" lon="-8.61229">
        <ele>191.92</ele>
        <time>2019-06-04T08:52:03Z</time>
      </trkpt>
      <trkpt lat="42.23986" lon="-8.61217">
        <ele>190.48</ele>
        <time>2019-06-04T08:52:17Z</time>
      </trkpt>
      <trkpt lat="42.24004" lon="-8.61203">
        <ele>190.48</ele>
        <time>2019-06-04T08:52:30Z</time>
      </trkpt>
      <trkpt lat="42.24017" lon="-8.61192">
        <ele>190.48</ele>
        <time>2019-06-04T08:52:42Z</time>
      </trkpt>
      <trkpt lat="42.24031" lon="-8.61178">
        <ele>190</ele>
        <time>2019-06-04T08:52:54Z</time>
      </trkpt>
      <trkpt lat="42.24035" lon="-8.61174">
        <ele>190</ele>
        <time>2019-06-04T08:52:58Z</time>
      </trkpt>
      <trkpt lat="42.24051" lon="-8.61152">
        <ele>189.04</ele>
        <time>2019-06-04T08:53:15Z</time>
      </trkpt>
      <trkpt lat="42.24055" lon="-8.61146">
        <ele>188.08</ele>
        <time>2019-06-04T08:53:20Z</time>
      </trkpt>
      <trkpt lat="42.24056" lon="-8.61144">
        <ele>188.08</ele>
        <time>2019-06-04T08:53:22Z</time>
      </trkpt>
      <trkpt lat="42.24061" lon="-8.61136">
        <ele>188.08</ele>
        <time>2019-06-04T08:53:28Z</time>
      </trkpt>
      <trkpt lat="42.24068" lon="-8.61128">
        <ele>187.59</ele>
        <time>2019-06-04T08:53:35Z</time>
      </trkpt>
      <trkpt lat="42.24079" lon="-8.61112">
        <ele>186.63</ele>
        <time>2019-06-04T08:53:47Z</time>
      </trkpt>
      <trkpt lat="42.24095" lon="-8.61092">
        <ele>185.19</ele>
        <time>2019-06-04T08:54:04Z</time>
      </trkpt>
      <trkpt lat="42.24107" lon="-8.61077">
        <ele>183.75</ele>
        <time>2019-06-04T08:54:17Z</time>
      </trkpt>
      <trkpt lat="42.24117" lon="-8.61063">
        <ele>184.23</ele>
        <time>2019-06-04T08:54:33Z</time>
      </trkpt>
      <trkpt lat="42.24123" lon="-8.61056">
        <ele>183.27</ele>
        <time>2019-06-04T08:54:44Z</time>
      </trkpt>
      <trkpt lat="42.24128" lon="-8.61047">
        <ele>183.27</ele>
        <time>2019-06-04T08:54:52Z</time>
      </trkpt>
      <trkpt lat="42.24137" lon="-8.61034">
        <ele>182.79</ele>
        <time>2019-06-04T08:55:02Z</time>
      </trkpt>
      <trkpt lat="42.24152" lon="-8.6102">
        <ele>182.79</ele>
        <time>2019-06-04T08:55:15Z</time>
      </trkpt>
      <trkpt lat="42.24154" lon="-8.61018">
        <ele>182.79</ele>
        <time>2019-06-04T08:55:17Z</time>
      </trkpt>
      <trkpt lat="42.2416" lon="-8.61027">
        <ele>182.31</ele>
        <time>2019-06-04T08:55:25Z</time>
      </trkpt>
      <trkpt lat="42.24164" lon="-8.61044">
        <ele>181.35</ele>
        <time>2019-06-04T08:55:37Z</time>
      </trkpt>
      <trkpt lat="42.24164" lon="-8.61049">
        <ele>180.87</ele>
        <time>2019-06-04T08:55:40Z</time>
      </trkpt>
      <trkpt lat="42.24161" lon="-8.6106">
        <ele>181.35</ele>
        <time>2019-06-04T08:55:51Z</time>
      </trkpt>
      <trkpt lat="42.2416" lon="-8.61068">
        <ele>180.87</ele>
        <time>2019-06-04T08:55:57Z</time>
      </trkpt>
      <trkpt lat="42.2416" lon="-8.61079">
        <ele>181.35</ele>
        <time>2019-06-04T08:56:09Z</time>
      </trkpt>
      <trkpt lat="42.24158" lon="-8.61082">
        <ele>181.35</ele>
        <time>2019-06-04T08:56:17Z</time>
      </trkpt>
      <trkpt lat="42.24163" lon="-8.6108">
        <ele>180.38</ele>
        <time>2019-06-04T08:56:25Z</time>
      </trkpt>
      <trkpt lat="42.24183" lon="-8.61077">
        <ele>180.87</ele>
        <time>2019-06-04T08:56:40Z</time>
      </trkpt>
      <trkpt lat="42.24194" lon="-8.61075">
        <ele>180.38</ele>
        <time>2019-06-04T08:56:48Z</time>
      </trkpt>
      <trkpt lat="42.24214" lon="-8.61071">
        <ele>180.87</ele>
        <time>2019-06-04T08:57:03Z</time>
      </trkpt>
      <trkpt lat="42.2423" lon="-8.6107">
        <ele>180.38</ele>
        <time>2019-06-04T08:57:15Z</time>
      </trkpt>
      <trkpt lat="42.24237" lon="-8.61067">
        <ele>180.87</ele>
        <time>2019-06-04T08:57:28Z</time>
      </trkpt>
      <trkpt lat="42.24257" lon="-8.61066">
        <ele>180.38</ele>
        <time>2019-06-04T08:57:42Z</time>
      </trkpt>
      <trkpt lat="42.24273" lon="-8.61067">
        <ele>180.87</ele>
        <time>2019-06-04T08:57:55Z</time>
      </trkpt>
      <trkpt lat="42.24289" lon="-8.61067">
        <ele>181.35</ele>
        <time>2019-06-04T08:58:07Z</time>
      </trkpt>
      <trkpt lat="42.24308" lon="-8.61064">
        <ele>182.31</ele>
        <time>2019-06-04T08:58:22Z</time>
      </trkpt>
      <trkpt lat="42.24323" lon="-8.61063">
        <ele>183.27</ele>
        <time>2019-06-04T08:58:35Z</time>
      </trkpt>
      <trkpt lat="42.24338" lon="-8.61062">
        <ele>183.27</ele>
        <time>2019-06-04T08:58:49Z</time>
      </trkpt>
      <trkpt lat="42.2435" lon="-8.61059">
        <ele>183.75</ele>
        <time>2019-06-04T08:58:59Z</time>
      </trkpt>
      <trkpt lat="42.24366" lon="-8.61058">
        <ele>184.23</ele>
        <time>2019-06-04T08:59:13Z</time>
      </trkpt>
      <trkpt lat="42.24372" lon="-8.61056">
        <ele>184.23</ele>
        <time>2019-06-04T08:59:16Z</time>
      </trkpt>
      <trkpt lat="42.24395" lon="-8.61048">
        <ele>184.71</ele>
        <time>2019-06-04T08:59:32Z</time>
      </trkpt>
      <trkpt lat="42.24412" lon="-8.61043">
        <ele>184.23</ele>
        <time>2019-06-04T08:59:45Z</time>
      </trkpt>
      <trkpt lat="42.24428" lon="-8.61039">
        <ele>184.23</ele>
        <time>2019-06-04T09:00:00Z</time>
      </trkpt>
      <trkpt lat="42.24443" lon="-8.61031">
        <ele>183.75</ele>
        <time>2019-06-04T09:00:14Z</time>
      </trkpt>
      <trkpt lat="42.24453" lon="-8.61027">
        <ele>183.27</ele>
        <time>2019-06-04T09:00:27Z</time>
      </trkpt>
      <trkpt lat="42.24457" lon="-8.61025">
        <ele>182.79</ele>
        <time>2019-06-04T09:00:32Z</time>
      </trkpt>
      <trkpt lat="42.24484" lon="-8.61024">
        <ele>182.79</ele>
        <time>2019-06-04T09:00:46Z</time>
      </trkpt>
      <trkpt lat="42.24503" lon="-8.61018">
        <ele>181.35</ele>
        <time>2019-06-04T09:01:02Z</time>
      </trkpt>
      <trkpt lat="42.24528" lon="-8.61011">
        <ele>180.38</ele>
        <time>2019-06-04T09:01:19Z</time>
      </trkpt>
      <trkpt lat="42.24544" lon="-8.60998">
        <ele>180.87</ele>
        <time>2019-06-04T09:01:33Z</time>
      </trkpt>
      <trkpt lat="42.24563" lon="-8.60986">
        <ele>178.46</ele>
        <time>2019-06-04T09:01:50Z</time>
      </trkpt>
      <trkpt lat="42.24573" lon="-8.60985">
        <ele>178.46</ele>
        <time>2019-06-04T09:02:01Z</time>
      </trkpt>
      <trkpt lat="42.24591" lon="-8.60989">
        <ele>177.5</ele>
        <time>2019-06-04T09:02:14Z</time>
      </trkpt>
      <trkpt lat="42.24593" lon="-8.6099">
        <ele>177.5</ele>
        <time>2019-06-04T09:02:16Z</time>
      </trkpt>
      <trkpt lat="42.24597" lon="-8.60991">
        <ele>177.02</ele>
        <time>2019-06-04T09:02:19Z</time>
      </trkpt>
      <trkpt lat="42.24611" lon="-8.61">
        <ele>177.02</ele>
        <time>2019-06-04T09:02:33Z</time>
      </trkpt>
      <trkpt lat="42.24613" lon="-8.61001">
        <ele>177.5</ele>
        <time>2019-06-04T09:02:35Z</time>
      </trkpt>
      <trkpt lat="42.24617" lon="-8.61003">
        <ele>176.54</ele>
        <time>2019-06-04T09:02:39Z</time>
      </trkpt>
      <trkpt lat="42.24633" lon="-8.61013">
        <ele>177.5</ele>
        <time>2019-06-04T09:02:53Z</time>
      </trkpt>
      <trkpt lat="42.24641" lon="-8.6102">
        <ele>176.54</ele>
        <time>2019-06-04T09:03:01Z</time>
      </trkpt>
      <trkpt lat="42.24656" lon="-8.61032">
        <ele>175.1</ele>
        <time>2019-06-04T09:03:14Z</time>
      </trkpt>
      <trkpt lat="42.24667" lon="-8.61037">
        <ele>174.62</ele>
        <time>2019-06-04T09:03:25Z</time>
      </trkpt>
      <trkpt lat="42.24681" lon="-8.61043">
        <ele>174.14</ele>
        <time>2019-06-04T09:03:38Z</time>
      </trkpt>
      <trkpt lat="42.24689" lon="-8.61045">
        <ele>173.17</ele>
        <time>2019-06-04T09:03:45Z</time>
      </trkpt>
      <trkpt lat="42.24695" lon="-8.61046">
        <ele>173.17</ele>
        <time>2019-06-04T09:03:49Z</time>
      </trkpt>
      <trkpt lat="42.24699" lon="-8.61047">
        <ele>173.17</ele>
        <time>2019-06-04T09:03:53Z</time>
      </trkpt>
      <trkpt lat="42.24706" lon="-8.6105">
        <ele>173.17</ele>
        <time>2019-06-04T09:03:59Z</time>
      </trkpt>
      <trkpt lat="42.24713" lon="-8.61051">
        <ele>172.21</ele>
        <time>2019-06-04T09:04:04Z</time>
      </trkpt>
      <trkpt lat="42.2473" lon="-8.61059">
        <ele>171.25</ele>
        <time>2019-06-04T09:04:16Z</time>
      </trkpt>
      <trkpt lat="42.2474" lon="-8.61065">
        <ele>170.29</ele>
        <time>2019-06-04T09:04:26Z</time>
      </trkpt>
      <trkpt lat="42.24743" lon="-8.61067">
        <ele>170.77</ele>
        <time>2019-06-04T09:04:28Z</time>
      </trkpt>
      <trkpt lat="42.24755" lon="-8.61069">
        <ele>169.81</ele>
        <time>2019-06-04T09:04:42Z</time>
      </trkpt>
      <trkpt lat="42.24755" lon="-8.6107">
        <ele>170.29</ele>
        <time>2019-06-04T09:04:43Z</time>
      </trkpt>
      <trkpt lat="42.24763" lon="-8.61073">
        <ele>169.81</ele>
        <time>2019-06-04T09:04:50Z</time>
      </trkpt>
      <trkpt lat="42.24771" lon="-8.61076">
        <ele>169.81</ele>
        <time>2019-06-04T09:04:57Z</time>
      </trkpt>
      <trkpt lat="42.24791" lon="-8.61079">
        <ele>169.33</ele>
        <time>2019-06-04T09:05:12Z</time>
      </trkpt>
      <trkpt lat="42.24809" lon="-8.61089">
        <ele>168.37</ele>
        <time>2019-06-04T09:05:27Z</time>
      </trkpt>
      <trkpt lat="42.24825" lon="-8.61089">
        <ele>168.37</ele>
        <time>2019-06-04T09:05:42Z</time>
      </trkpt>
      <trkpt lat="42.24839" lon="-8.61093">
        <ele>168.37</ele>
        <time>2019-06-04T09:05:53Z</time>
      </trkpt>
      <trkpt lat="42.24846" lon="-8.61095">
        <ele>168.37</ele>
        <time>2019-06-04T09:05:57Z</time>
      </trkpt>
      <trkpt lat="42.24859" lon="-8.61099">
        <ele>168.37</ele>
        <time>2019-06-04T09:06:08Z</time>
      </trkpt>
      <trkpt lat="42.24867" lon="-8.611">
        <ele>168.37</ele>
        <time>2019-06-04T09:06:14Z</time>
      </trkpt>
      <trkpt lat="42.24882" lon="-8.61101">
        <ele>169.33</ele>
        <time>2019-06-04T09:06:29Z</time>
      </trkpt>
      <trkpt lat="42.24886" lon="-8.611">
        <ele>168.37</ele>
        <time>2019-06-04T09:06:34Z</time>
      </trkpt>
      <trkpt lat="42.24911" lon="-8.61093">
        <ele>166.93</ele>
        <time>2019-06-04T09:06:47Z</time>
      </trkpt>
      <trkpt lat="42.24923" lon="-8.61083">
        <ele>165</ele>
        <time>2019-06-04T09:07:00Z</time>
      </trkpt>
      <trkpt lat="42.24925" lon="-8.6108">
        <ele>164.52</ele>
        <time>2019-06-04T09:07:02Z</time>
      </trkpt>
      <trkpt lat="42.24934" lon="-8.61077">
        <ele>163.56</ele>
        <time>2019-06-04T09:07:14Z</time>
      </trkpt>
      <trkpt lat="42.24935" lon="-8.61077">
        <ele>163.56</ele>
        <time>2019-06-04T09:07:15Z</time>
      </trkpt>
      <trkpt lat="42.24948" lon="-8.61083">
        <ele>161.64</ele>
        <time>2019-06-04T09:07:27Z</time>
      </trkpt>
      <trkpt lat="42.24951" lon="-8.61084">
        <ele>161.64</ele>
        <time>2019-06-04T09:07:30Z</time>
      </trkpt>
      <trkpt lat="42.24957" lon="-8.61087">
        <ele>161.16</ele>
        <time>2019-06-04T09:07:34Z</time>
      </trkpt>
      <trkpt lat="42.24968" lon="-8.61092">
        <ele>159.72</ele>
        <time>2019-06-04T09:07:44Z</time>
      </trkpt>
      <trkpt lat="42.24978" lon="-8.61095">
        <ele>158.75</ele>
        <time>2019-06-04T09:07:53Z</time>
      </trkpt>
      <trkpt lat="42.24981" lon="-8.61096">
        <ele>157.79</ele>
        <time>2019-06-04T09:07:56Z</time>
      </trkpt>
      <trkpt lat="42.24992" lon="-8.61099">
        <ele>156.83</ele>
        <time>2019-06-04T09:08:05Z</time>
      </trkpt>
      <trkpt lat="42.25005" lon="-8.61108">
        <ele>154.91</ele>
        <time>2019-06-04T09:08:17Z</time>
      </trkpt>
      <trkpt lat="42.2502" lon="-8.61113">
        <ele>152.03</ele>
        <time>2019-06-04T09:08:30Z</time>
      </trkpt>
      <trkpt lat="42.25035" lon="-8.61116">
        <ele>150.1</ele>
        <time>2019-06-04T09:08:42Z</time>
      </trkpt>
      <trkpt lat="42.25052" lon="-8.61121">
        <ele>146.74</ele>
        <time>2019-06-04T09:08:56Z</time>
      </trkpt>
      <trkpt lat="42.25071" lon="-8.61127">
        <ele>143.85</ele>
        <time>2019-06-04T09:09:12Z</time>
      </trkpt>
      <trkpt lat="42.25076" lon="-8.61129">
        <ele>142.41</ele>
        <time>2019-06-04T09:09:17Z</time>
      </trkpt>
      <trkpt lat="42.25084" lon="-8.61129">
        <ele>141.93</ele>
        <time>2019-06-04T09:09:23Z</time>
      </trkpt>
      <trkpt lat="42.25093" lon="-8.61131">
        <ele>140.97</ele>
        <time>2019-06-04T09:09:30Z</time>
      </trkpt>
      <trkpt lat="42.25095" lon="-8.61132">
        <ele>140.49</ele>
        <time>2019-06-04T09:09:32Z</time>
      </trkpt>
      <trkpt lat="42.25105" lon="-8.61136">
        <ele>140.01</ele>
        <time>2019-06-04T09:09:44Z</time>
      </trkpt>
      <trkpt lat="42.25107" lon="-8.61138">
        <ele>138.57</ele>
        <time>2019-06-04T09:10:03Z</time>
      </trkpt>
      <trkpt lat="42.25121" lon="-8.61137">
        <ele>138.09</ele>
        <time>2019-06-04T09:10:15Z</time>
      </trkpt>
      <trkpt lat="42.25119" lon="-8.61138">
        <ele>138.09</ele>
        <time>2019-06-04T09:10:32Z</time>
      </trkpt>
      <trkpt lat="42.25117" lon="-8.61137">
        <ele>137.61</ele>
        <time>2019-06-04T09:10:48Z</time>
      </trkpt>
      <trkpt lat="42.25121" lon="-8.61138">
        <ele>136.64</ele>
        <time>2019-06-04T09:11:02Z</time>
      </trkpt>
      <trkpt lat="42.25116" lon="-8.61138">
        <ele>137.61</ele>
        <time>2019-06-04T09:11:21Z</time>
      </trkpt>
      <trkpt lat="42.25112" lon="-8.61141">
        <ele>137.61</ele>
        <time>2019-06-04T09:11:34Z</time>
      </trkpt>
      <trkpt lat="42.25112" lon="-8.61142">
        <ele>137.13</ele>
        <time>2019-06-04T09:11:35Z</time>
      </trkpt>
      <trkpt lat="42.25122" lon="-8.61146">
        <ele>134.24</ele>
        <time>2019-06-04T09:11:45Z</time>
      </trkpt>
      <trkpt lat="42.25132" lon="-8.61145">
        <ele>130.4</ele>
        <time>2019-06-04T09:11:57Z</time>
      </trkpt>
      <trkpt lat="42.25137" lon="-8.61142">
        <ele>128.47</ele>
        <time>2019-06-04T09:12:01Z</time>
      </trkpt>
      <trkpt lat="42.25144" lon="-8.61133">
        <ele>125.59</ele>
        <time>2019-06-04T09:12:11Z</time>
      </trkpt>
      <trkpt lat="42.25155" lon="-8.61125">
        <ele>124.15</ele>
        <time>2019-06-04T09:12:25Z</time>
      </trkpt>
      <trkpt lat="42.25156" lon="-8.61124">
        <ele>123.67</ele>
        <time>2019-06-04T09:12:27Z</time>
      </trkpt>
      <trkpt lat="42.2517" lon="-8.6112">
        <ele>120.3</ele>
        <time>2019-06-04T09:12:41Z</time>
      </trkpt>
      <trkpt lat="42.25184" lon="-8.6112">
        <ele>116.46</ele>
        <time>2019-06-04T09:12:50Z</time>
      </trkpt>
      <trkpt lat="42.25186" lon="-8.61121">
        <ele>115.98</ele>
        <time>2019-06-04T09:12:52Z</time>
      </trkpt>
      <trkpt lat="42.25189" lon="-8.61124">
        <ele>114.53</ele>
        <time>2019-06-04T09:12:55Z</time>
      </trkpt>
      <trkpt lat="42.25197" lon="-8.61134">
        <ele>111.17</ele>
        <time>2019-06-04T09:13:05Z</time>
      </trkpt>
      <trkpt lat="42.252" lon="-8.61135">
        <ele>112.13</ele>
        <time>2019-06-04T09:13:07Z</time>
      </trkpt>
      <trkpt lat="42.25209" lon="-8.61132">
        <ele>110.69</ele>
        <time>2019-06-04T09:13:22Z</time>
      </trkpt>
      <trkpt lat="42.25206" lon="-8.61129">
        <ele>110.69</ele>
        <time>2019-06-04T09:13:38Z</time>
      </trkpt>
      <trkpt lat="42.25207" lon="-8.61127">
        <ele>111.17</ele>
        <time>2019-06-04T09:14:02Z</time>
      </trkpt>
      <trkpt lat="42.25209" lon="-8.61125">
        <ele>111.65</ele>
        <time>2019-06-04T09:14:12Z</time>
      </trkpt>
      <trkpt lat="42.25223" lon="-8.61114">
        <ele>109.25</ele>
        <time>2019-06-04T09:14:28Z</time>
      </trkpt>
      <trkpt lat="42.25234" lon="-8.61096">
        <ele>105.88</ele>
        <time>2019-06-04T09:14:44Z</time>
      </trkpt>
      <trkpt lat="42.25236" lon="-8.61093">
        <ele>105.88</ele>
        <time>2019-06-04T09:14:46Z</time>
      </trkpt>
      <trkpt lat="42.25249" lon="-8.61076">
        <ele>103</ele>
        <time>2019-06-04T09:15:02Z</time>
      </trkpt>
      <trkpt lat="42.25257" lon="-8.61066">
        <ele>101.56</ele>
        <time>2019-06-04T09:15:15Z</time>
      </trkpt>
      <trkpt lat="42.25269" lon="-8.61047">
        <ele>99.15</ele>
        <time>2019-06-04T09:15:29Z</time>
      </trkpt>
      <trkpt lat="42.25275" lon="-8.61028">
        <ele>97.71</ele>
        <time>2019-06-04T09:15:41Z</time>
      </trkpt>
      <trkpt lat="42.25281" lon="-8.61018">
        <ele>97.71</ele>
        <time>2019-06-04T09:15:55Z</time>
      </trkpt>
      <trkpt lat="42.25283" lon="-8.6102">
        <ele>96.75</ele>
        <time>2019-06-04T09:15:58Z</time>
      </trkpt>
      <trkpt lat="42.25301" lon="-8.61024">
        <ele>95.79</ele>
        <time>2019-06-04T09:16:14Z</time>
      </trkpt>
      <trkpt lat="42.25311" lon="-8.61028">
        <ele>94.83</ele>
        <time>2019-06-04T09:16:28Z</time>
      </trkpt>
      <trkpt lat="42.25327" lon="-8.61039">
        <ele>91.94</ele>
        <time>2019-06-04T09:16:43Z</time>
      </trkpt>
      <trkpt lat="42.25336" lon="-8.61049">
        <ele>89.06</ele>
        <time>2019-06-04T09:16:52Z</time>
      </trkpt>
      <trkpt lat="42.25349" lon="-8.6106">
        <ele>86.18</ele>
        <time>2019-06-04T09:17:06Z</time>
      </trkpt>
      <trkpt lat="42.25362" lon="-8.61071">
        <ele>82.81</ele>
        <time>2019-06-04T09:17:20Z</time>
      </trkpt>
      <trkpt lat="42.25363" lon="-8.61071">
        <ele>82.33</ele>
        <time>2019-06-04T09:17:21Z</time>
      </trkpt>
      <trkpt lat="42.25368" lon="-8.61066">
        <ele>81.85</ele>
        <time>2019-06-04T09:17:25Z</time>
      </trkpt>
      <trkpt lat="42.25377" lon="-8.61054">
        <ele>80.89</ele>
        <time>2019-06-04T09:17:41Z</time>
      </trkpt>
      <trkpt lat="42.25376" lon="-8.61046">
        <ele>79.93</ele>
        <time>2019-06-04T09:17:53Z</time>
      </trkpt>
      <trkpt lat="42.25382" lon="-8.61021">
        <ele>76.56</ele>
        <time>2019-06-04T09:18:09Z</time>
      </trkpt>
      <trkpt lat="42.25383" lon="-8.61018">
        <ele>76.08</ele>
        <time>2019-06-04T09:18:11Z</time>
      </trkpt>
      <trkpt lat="42.25387" lon="-8.61007">
        <ele>75.12</ele>
        <time>2019-06-04T09:18:18Z</time>
      </trkpt>
      <trkpt lat="42.2539" lon="-8.61001">
        <ele>74.64</ele>
        <time>2019-06-04T09:18:22Z</time>
      </trkpt>
      <trkpt lat="42.25398" lon="-8.60982">
        <ele>70.79</ele>
        <time>2019-06-04T09:18:36Z</time>
      </trkpt>
      <trkpt lat="42.25403" lon="-8.60963">
        <ele>67.91</ele>
        <time>2019-06-04T09:18:50Z</time>
      </trkpt>
      <trkpt lat="42.25402" lon="-8.60953">
        <ele>67.43</ele>
        <time>2019-06-04T09:19:06Z</time>
      </trkpt>
      <trkpt lat="42.25407" lon="-8.60947">
        <ele>65.99</ele>
        <time>2019-06-04T09:19:18Z</time>
      </trkpt>
      <trkpt lat="42.2541" lon="-8.60935">
        <ele>63.1</ele>
        <time>2019-06-04T09:19:29Z</time>
      </trkpt>
      <trkpt lat="42.25414" lon="-8.60927">
        <ele>61.66</ele>
        <time>2019-06-04T09:19:37Z</time>
      </trkpt>
      <trkpt lat="42.25418" lon="-8.60928">
        <ele>60.7</ele>
        <time>2019-06-04T09:19:54Z</time>
      </trkpt>
      <trkpt lat="42.25419" lon="-8.60928">
        <ele>60.7</ele>
        <time>2019-06-04T09:19:55Z</time>
      </trkpt>
      <trkpt lat="42.25422" lon="-8.60929">
        <ele>59.74</ele>
        <time>2019-06-04T09:20:11Z</time>
      </trkpt>
      <trkpt lat="42.25425" lon="-8.60936">
        <ele>59.26</ele>
        <time>2019-06-04T09:20:30Z</time>
      </trkpt>
      <trkpt lat="42.25429" lon="-8.60944">
        <ele>56.86</ele>
        <time>2019-06-04T09:20:44Z</time>
      </trkpt>
      <trkpt lat="42.25438" lon="-8.60952">
        <ele>53.97</ele>
        <time>2019-06-04T09:20:55Z</time>
      </trkpt>
      <trkpt lat="42.25457" lon="-8.60965">
        <ele>51.09</ele>
        <time>2019-06-04T09:21:12Z</time>
      </trkpt>
      <trkpt lat="42.25467" lon="-8.6097">
        <ele>49.65</ele>
        <time>2019-06-04T09:21:20Z</time>
      </trkpt>
      <trkpt lat="42.25473" lon="-8.60973">
        <ele>48.68</ele>
        <time>2019-06-04T09:21:24Z</time>
      </trkpt>
      <trkpt lat="42.25491" lon="-8.6099">
        <ele>46.28</ele>
        <time>2019-06-04T09:21:40Z</time>
      </trkpt>
      <trkpt lat="42.25504" lon="-8.61004">
        <ele>44.36</ele>
        <time>2019-06-04T09:21:52Z</time>
      </trkpt>
      <trkpt lat="42.2552" lon="-8.61005">
        <ele>42.92</ele>
        <time>2019-06-04T09:22:06Z</time>
      </trkpt>
      <trkpt lat="42.25546" lon="-8.60999">
        <ele>40.51</ele>
        <time>2019-06-04T09:22:23Z</time>
      </trkpt>
      <trkpt lat="42.25565" lon="-8.60996">
        <ele>38.59</ele>
        <time>2019-06-04T09:22:37Z</time>
      </trkpt>
      <trkpt lat="42.25581" lon="-8.60986">
        <ele>38.59</ele>
        <time>2019-06-04T09:22:54Z</time>
      </trkpt>
      <trkpt lat="42.25586" lon="-8.60979">
        <ele>38.59</ele>
        <time>2019-06-04T09:23:11Z</time>
      </trkpt>
      <trkpt lat="42.25586" lon="-8.60978">
        <ele>38.59</ele>
        <time>2019-06-04T09:23:12Z</time>
      </trkpt>
      <trkpt lat="42.25588" lon="-8.60974">
        <ele>38.59</ele>
        <time>2019-06-04T09:23:15Z</time>
      </trkpt>
      <trkpt lat="42.25605" lon="-8.60956">
        <ele>38.11</ele>
        <time>2019-06-04T09:23:33Z</time>
      </trkpt>
      <trkpt lat="42.2562" lon="-8.60944">
        <ele>37.15</ele>
        <time>2019-06-04T09:23:47Z</time>
      </trkpt>
      <trkpt lat="42.25633" lon="-8.60936">
        <ele>37.15</ele>
        <time>2019-06-04T09:23:59Z</time>
      </trkpt>
      <trkpt lat="42.25652" lon="-8.6092">
        <ele>36.67</ele>
        <time>2019-06-04T09:24:16Z</time>
      </trkpt>
      <trkpt lat="42.25657" lon="-8.60919">
        <ele>36.67</ele>
        <time>2019-06-04T09:24:28Z</time>
      </trkpt>
      <trkpt lat="42.25669" lon="-8.6091">
        <ele>36.19</ele>
        <time>2019-06-04T09:24:48Z</time>
      </trkpt>
      <trkpt lat="42.25688" lon="-8.60896">
        <ele>36.19</ele>
        <time>2019-06-04T09:25:06Z</time>
      </trkpt>
      <trkpt lat="42.25698" lon="-8.60891">
        <ele>36.19</ele>
        <time>2019-06-04T09:25:14Z</time>
      </trkpt>
      <trkpt lat="42.25703" lon="-8.60889">
        <ele>36.19</ele>
        <time>2019-06-04T09:25:18Z</time>
      </trkpt>
      <trkpt lat="42.25723" lon="-8.60879">
        <ele>36.19</ele>
        <time>2019-06-04T09:25:35Z</time>
      </trkpt>
      <trkpt lat="42.25724" lon="-8.60879">
        <ele>36.19</ele>
        <time>2019-06-04T09:25:36Z</time>
      </trkpt>
      <trkpt lat="42.25738" lon="-8.60874">
        <ele>35.71</ele>
        <time>2019-06-04T09:25:48Z</time>
      </trkpt>
      <trkpt lat="42.25758" lon="-8.60867">
        <ele>35.71</ele>
        <time>2019-06-04T09:26:03Z</time>
      </trkpt>
      <trkpt lat="42.25776" lon="-8.6086">
        <ele>35.23</ele>
        <time>2019-06-04T09:26:18Z</time>
      </trkpt>
      <trkpt lat="42.25788" lon="-8.60853">
        <ele>35.23</ele>
        <time>2019-06-04T09:26:30Z</time>
      </trkpt>
      <trkpt lat="42.25789" lon="-8.60853">
        <ele>35.23</ele>
        <time>2019-06-04T09:26:31Z</time>
      </trkpt>
      <trkpt lat="42.25792" lon="-8.60853">
        <ele>35.71</ele>
        <time>2019-06-04T09:26:33Z</time>
      </trkpt>
      <trkpt lat="42.25814" lon="-8.60845">
        <ele>35.23</ele>
        <time>2019-06-04T09:26:51Z</time>
      </trkpt>
      <trkpt lat="42.25833" lon="-8.60836">
        <ele>34.26</ele>
        <time>2019-06-04T09:27:07Z</time>
      </trkpt>
      <trkpt lat="42.2585" lon="-8.60831">
        <ele>33.78</ele>
        <time>2019-06-04T09:27:22Z</time>
      </trkpt>
      <trkpt lat="42.25874" lon="-8.6082">
        <ele>33.78</ele>
        <time>2019-06-04T09:27:42Z</time>
      </trkpt>
      <trkpt lat="42.25897" lon="-8.60813">
        <ele>33.78</ele>
        <time>2019-06-04T09:28:00Z</time>
      </trkpt>
      <trkpt lat="42.25912" lon="-8.60811">
        <ele>33.3</ele>
        <time>2019-06-04T09:28:13Z</time>
      </trkpt>
      <trkpt lat="42.25924" lon="-8.60809">
        <ele>34.26</ele>
        <time>2019-06-04T09:28:24Z</time>
      </trkpt>
      <trkpt lat="42.25935" lon="-8.60807">
        <ele>33.78</ele>
        <time>2019-06-04T09:28:34Z</time>
      </trkpt>
      <trkpt lat="42.25949" lon="-8.608">
        <ele>34.26</ele>
        <time>2019-06-04T09:28:47Z</time>
      </trkpt>
      <trkpt lat="42.25964" lon="-8.60791">
        <ele>34.74</ele>
        <time>2019-06-04T09:29:02Z</time>
      </trkpt>
      <trkpt lat="42.25965" lon="-8.60791">
        <ele>34.26</ele>
        <time>2019-06-04T09:29:03Z</time>
      </trkpt>
      <trkpt lat="42.25983" lon="-8.60792">
        <ele>34.26</ele>
        <time>2019-06-04T09:29:17Z</time>
      </trkpt>
      <trkpt lat="42.25995" lon="-8.60795">
        <ele>33.78</ele>
        <time>2019-06-04T09:29:29Z</time>
      </trkpt>
      <trkpt lat="42.26009" lon="-8.60793">
        <ele>33.78</ele>
        <time>2019-06-04T09:29:42Z</time>
      </trkpt>
      <trkpt lat="42.26024" lon="-8.60793">
        <ele>33.78</ele>
        <time>2019-06-04T09:29:55Z</time>
      </trkpt>
      <trkpt lat="42.26043" lon="-8.60795">
        <ele>33.3</ele>
        <time>2019-06-04T09:30:08Z</time>
      </trkpt>
      <trkpt lat="42.26058" lon="-8.60796">
        <ele>32.82</ele>
        <time>2019-06-04T09:30:20Z</time>
      </trkpt>
      <trkpt lat="42.26075" lon="-8.60799">
        <ele>32.82</ele>
        <time>2019-06-04T09:30:34Z</time>
      </trkpt>
      <trkpt lat="42.26082" lon="-8.60799">
        <ele>32.82</ele>
        <time>2019-06-04T09:30:39Z</time>
      </trkpt>
      <trkpt lat="42.26103" lon="-8.60798">
        <ele>32.34</ele>
        <time>2019-06-04T09:30:55Z</time>
      </trkpt>
      <trkpt lat="42.26113" lon="-8.60794">
        <ele>32.82</ele>
        <time>2019-06-04T09:31:04Z</time>
      </trkpt>
      <trkpt lat="42.26115" lon="-8.60793">
        <ele>32.82</ele>
        <time>2019-06-04T09:31:06Z</time>
      </trkpt>
      <trkpt lat="42.26132" lon="-8.60784">
        <ele>31.86</ele>
        <time>2019-06-04T09:31:21Z</time>
      </trkpt>
      <trkpt lat="42.26135" lon="-8.60783">
        <ele>31.86</ele>
        <time>2019-06-04T09:31:28Z</time>
      </trkpt>
      <trkpt lat="42.26143" lon="-8.60778">
        <ele>31.86</ele>
        <time>2019-06-04T09:31:37Z</time>
      </trkpt>
      <trkpt lat="42.2616" lon="-8.60769">
        <ele>31.38</ele>
        <time>2019-06-04T09:31:52Z</time>
      </trkpt>
      <trkpt lat="42.26175" lon="-8.60764">
        <ele>31.38</ele>
        <time>2019-06-04T09:32:06Z</time>
      </trkpt>
      <trkpt lat="42.26192" lon="-8.60761">
        <ele>30.9</ele>
        <time>2019-06-04T09:32:19Z</time>
      </trkpt>
      <trkpt lat="42.2621" lon="-8.6076">
        <ele>29.94</ele>
        <time>2019-06-04T09:32:33Z</time>
      </trkpt>
      <trkpt lat="42.26227" lon="-8.60761">
        <ele>30.9</ele>
        <time>2019-06-04T09:32:47Z</time>
      </trkpt>
      <trkpt lat="42.2624" lon="-8.60764">
        <ele>29.94</ele>
        <time>2019-06-04T09:33:00Z</time>
      </trkpt>
      <trkpt lat="42.26258" lon="-8.60771">
        <ele>29.94</ele>
        <time>2019-06-04T09:33:15Z</time>
      </trkpt>
      <trkpt lat="42.26276" lon="-8.60779">
        <ele>29.46</ele>
        <time>2019-06-04T09:33:29Z</time>
      </trkpt>
      <trkpt lat="42.26293" lon="-8.6079">
        <ele>29.46</ele>
        <time>2019-06-04T09:33:44Z</time>
      </trkpt>
      <trkpt lat="42.26302" lon="-8.60797">
        <ele>28.98</ele>
        <time>2019-06-04T09:33:56Z</time>
      </trkpt>
      <trkpt lat="42.26318" lon="-8.60801">
        <ele>28.5</ele>
        <time>2019-06-04T09:34:10Z</time>
      </trkpt>
      <trkpt lat="42.26334" lon="-8.60802">
        <ele>28.5</ele>
        <time>2019-06-04T09:34:24Z</time>
      </trkpt>
      <trkpt lat="42.26345" lon="-8.60804">
        <ele>28.02</ele>
        <time>2019-06-04T09:34:34Z</time>
      </trkpt>
      <trkpt lat="42.26363" lon="-8.60806">
        <ele>28.5</ele>
        <time>2019-06-04T09:34:47Z</time>
      </trkpt>
      <trkpt lat="42.26382" lon="-8.6081">
        <ele>28.02</ele>
        <time>2019-06-04T09:35:02Z</time>
      </trkpt>
      <trkpt lat="42.26394" lon="-8.60811">
        <ele>28.02</ele>
        <time>2019-06-04T09:35:19Z</time>
      </trkpt>
      <trkpt lat="42.26407" lon="-8.60817">
        <ele>27.53</ele>
        <time>2019-06-04T09:35:30Z</time>
      </trkpt>
      <trkpt lat="42.26423" lon="-8.6082">
        <ele>26.57</ele>
        <time>2019-06-04T09:35:42Z</time>
      </trkpt>
      <trkpt lat="42.2643" lon="-8.60821">
        <ele>27.05</ele>
        <time>2019-06-04T09:35:47Z</time>
      </trkpt>
      <trkpt lat="42.26451" lon="-8.60827">
        <ele>26.57</ele>
        <time>2019-06-04T09:36:03Z</time>
      </trkpt>
      <trkpt lat="42.26466" lon="-8.6083">
        <ele>26.57</ele>
        <time>2019-06-04T09:36:16Z</time>
      </trkpt>
      <trkpt lat="42.26482" lon="-8.60833">
        <ele>27.05</ele>
        <time>2019-06-04T09:36:30Z</time>
      </trkpt>
      <trkpt lat="42.26496" lon="-8.60832">
        <ele>27.53</ele>
        <time>2019-06-04T09:36:43Z</time>
      </trkpt>
      <trkpt lat="42.26517" lon="-8.60837">
        <ele>27.05</ele>
        <time>2019-06-04T09:36:59Z</time>
      </trkpt>
      <trkpt lat="42.26532" lon="-8.60844">
        <ele>27.53</ele>
        <time>2019-06-04T09:37:11Z</time>
      </trkpt>
      <trkpt lat="42.26534" lon="-8.60844">
        <ele>27.05</ele>
        <time>2019-06-04T09:37:13Z</time>
      </trkpt>
      <trkpt lat="42.2654" lon="-8.60844">
        <ele>28.02</ele>
        <time>2019-06-04T09:37:19Z</time>
      </trkpt>
      <trkpt lat="42.26556" lon="-8.60855">
        <ele>28.02</ele>
        <time>2019-06-04T09:37:34Z</time>
      </trkpt>
      <trkpt lat="42.26574" lon="-8.60863">
        <ele>27.05</ele>
        <time>2019-06-04T09:37:50Z</time>
      </trkpt>
      <trkpt lat="42.26587" lon="-8.60869">
        <ele>27.05</ele>
        <time>2019-06-04T09:38:01Z</time>
      </trkpt>
      <trkpt lat="42.26601" lon="-8.60874">
        <ele>26.57</ele>
        <time>2019-06-04T09:38:13Z</time>
      </trkpt>
      <trkpt lat="42.26606" lon="-8.60877">
        <ele>26.09</ele>
        <time>2019-06-04T09:38:18Z</time>
      </trkpt>
      <trkpt lat="42.26613" lon="-8.60895">
        <ele>26.57</ele>
        <time>2019-06-04T09:38:33Z</time>
      </trkpt>
      <trkpt lat="42.26616" lon="-8.60905">
        <ele>26.57</ele>
        <time>2019-06-04T09:38:48Z</time>
      </trkpt>
      <trkpt lat="42.26618" lon="-8.60909">
        <ele>26.09</ele>
        <time>2019-06-04T09:39:06Z</time>
      </trkpt>
      <trkpt lat="42.26624" lon="-8.6091">
        <ele>26.57</ele>
        <time>2019-06-04T09:39:27Z</time>
      </trkpt>
      <trkpt lat="42.26627" lon="-8.6091">
        <ele>26.09</ele>
        <time>2019-06-04T09:39:54Z</time>
      </trkpt>
      <trkpt lat="42.26625" lon="-8.60909">
        <ele>26.57</ele>
        <time>2019-06-04T09:40:12Z</time>
      </trkpt>
      <trkpt lat="42.26622" lon="-8.6091">
        <ele>26.09</ele>
        <time>2019-06-04T09:40:44Z</time>
      </trkpt>
      <trkpt lat="42.26621" lon="-8.60908">
        <ele>26.09</ele>
        <time>2019-06-04T09:41:05Z</time>
      </trkpt>
      <trkpt lat="42.26626" lon="-8.6091">
        <ele>25.61</ele>
        <time>2019-06-04T09:41:28Z</time>
      </trkpt>
      <trkpt lat="42.26629" lon="-8.60912">
        <ele>24.17</ele>
        <time>2019-06-04T09:41:45Z</time>
      </trkpt>
      <trkpt lat="42.26627" lon="-8.60913">
        <ele>25.61</ele>
        <time>2019-06-04T09:41:55Z</time>
      </trkpt>
      <trkpt lat="42.26628" lon="-8.60914">
        <ele>24.65</ele>
        <time>2019-06-04T09:42:34Z</time>
      </trkpt>
      <trkpt lat="42.26629" lon="-8.60915">
        <ele>24.17</ele>
        <time>2019-06-04T09:43:12Z</time>
      </trkpt>
      <trkpt lat="42.26635" lon="-8.60913">
        <ele>24.17</ele>
        <time>2019-06-04T09:43:45Z</time>
      </trkpt>
      <trkpt lat="42.26631" lon="-8.60913">
        <ele>23.69</ele>
        <time>2019-06-04T09:44:26Z</time>
      </trkpt>
      <trkpt lat="42.26625" lon="-8.60916">
        <ele>23.21</ele>
        <time>2019-06-04T09:45:06Z</time>
      </trkpt>
      <trkpt lat="42.26628" lon="-8.60916">
        <ele>22.73</ele>
        <time>2019-06-04T09:45:33Z</time>
      </trkpt>
      <trkpt lat="42.26625" lon="-8.60916">
        <ele>22.25</ele>
        <time>2019-06-04T09:46:05Z</time>
      </trkpt>
    </trkseg>
  </trk>
</gpx>